<?xml version="1.0" encoding="UTF-8" standalone="no" ?>
<gpx xmlns="http://www.topografix.com/GPX/1/1" xmlns:xsi="http://www.w3.org/2001/XMLSchema-instance" xsi:schemaLocation="http://www.topografix.com/GPX/1/1 http://www.topografix.com/GPX/1/1/gpx.xsd" version="1.1" creator="VisuGPX - https://www.visugpx.com">
  <metadata>
    <name>Belvédère du ranc</name>
    <desc><![CDATA[Très belle sur les gorges de la Bourne.]]></desc>
  </metadata>
  <trk>
    <name><![CDATA[31-JUIL-12 16:34:38]]></name>
    <trkseg>
      <trkpt lat="45.08491" lon="5.43424">
        <ele>1174.87</ele>
        <time>2012-07-31T12:45:21Z</time>
      </trkpt>
      <trkpt lat="45.08491" lon="5.43424">
        <ele>1174.87</ele>
        <time>2012-07-31T12:45:53Z</time>
      </trkpt>
      <trkpt lat="45.08491" lon="5.43424">
        <ele>1174.87</ele>
        <time>2012-07-31T12:46:15Z</time>
      </trkpt>
      <trkpt lat="45.08491" lon="5.43424">
        <ele>1174.87</ele>
        <time>2012-07-31T12:46:27Z</time>
      </trkpt>
      <trkpt lat="45.08487" lon="5.43423">
        <ele>1174.87</ele>
        <time>2012-07-31T12:46:38Z</time>
      </trkpt>
      <trkpt lat="45.08474" lon="5.43432">
        <ele>1174.87</ele>
        <time>2012-07-31T12:46:45Z</time>
      </trkpt>
      <trkpt lat="45.08466" lon="5.43432">
        <ele>1174.39</ele>
        <time>2012-07-31T12:46:53Z</time>
      </trkpt>
      <trkpt lat="45.08454" lon="5.43428">
        <ele>1172.47</ele>
        <time>2012-07-31T12:47:07Z</time>
      </trkpt>
      <trkpt lat="45.08447" lon="5.43431">
        <ele>1172.95</ele>
        <time>2012-07-31T12:47:18Z</time>
      </trkpt>
      <trkpt lat="45.08447" lon="5.43437">
        <ele>1172.95</ele>
        <time>2012-07-31T12:47:21Z</time>
      </trkpt>
      <trkpt lat="45.08444" lon="5.43448">
        <ele>1171.98</ele>
        <time>2012-07-31T12:47:28Z</time>
      </trkpt>
      <trkpt lat="45.08438" lon="5.43449">
        <ele>1171.5</ele>
        <time>2012-07-31T12:47:39Z</time>
      </trkpt>
      <trkpt lat="45.08438" lon="5.4345">
        <ele>1171.02</ele>
        <time>2012-07-31T12:47:42Z</time>
      </trkpt>
      <trkpt lat="45.08429" lon="5.43463">
        <ele>1170.54</ele>
        <time>2012-07-31T12:47:50Z</time>
      </trkpt>
      <trkpt lat="45.08429" lon="5.43463">
        <ele>1170.54</ele>
        <time>2012-07-31T12:47:59Z</time>
      </trkpt>
      <trkpt lat="45.08428" lon="5.43463">
        <ele>1170.06</ele>
        <time>2012-07-31T12:48:01Z</time>
      </trkpt>
      <trkpt lat="45.08425" lon="5.43462">
        <ele>1169.58</ele>
        <time>2012-07-31T12:48:04Z</time>
      </trkpt>
      <trkpt lat="45.08424" lon="5.4346">
        <ele>1169.58</ele>
        <time>2012-07-31T12:48:09Z</time>
      </trkpt>
      <trkpt lat="45.0842" lon="5.43458">
        <ele>1169.1</ele>
        <time>2012-07-31T12:48:12Z</time>
      </trkpt>
      <trkpt lat="45.08416" lon="5.43455">
        <ele>1168.14</ele>
        <time>2012-07-31T12:48:18Z</time>
      </trkpt>
      <trkpt lat="45.08411" lon="5.43453">
        <ele>1168.14</ele>
        <time>2012-07-31T12:48:25Z</time>
      </trkpt>
      <trkpt lat="45.08404" lon="5.43448">
        <ele>1166.7</ele>
        <time>2012-07-31T12:48:34Z</time>
      </trkpt>
      <trkpt lat="45.084" lon="5.43449">
        <ele>1166.22</ele>
        <time>2012-07-31T12:48:42Z</time>
      </trkpt>
      <trkpt lat="45.08388" lon="5.43449">
        <ele>1167.18</ele>
        <time>2012-07-31T12:48:55Z</time>
      </trkpt>
      <trkpt lat="45.08383" lon="5.4345">
        <ele>1166.22</ele>
        <time>2012-07-31T12:49:01Z</time>
      </trkpt>
      <trkpt lat="45.08377" lon="5.43451">
        <ele>1166.7</ele>
        <time>2012-07-31T12:49:08Z</time>
      </trkpt>
      <trkpt lat="45.08372" lon="5.43451">
        <ele>1167.66</ele>
        <time>2012-07-31T12:49:12Z</time>
      </trkpt>
      <trkpt lat="45.08366" lon="5.43451">
        <ele>1167.18</ele>
        <time>2012-07-31T12:49:17Z</time>
      </trkpt>
      <trkpt lat="45.08353" lon="5.43448">
        <ele>1167.66</ele>
        <time>2012-07-31T12:49:28Z</time>
      </trkpt>
      <trkpt lat="45.08339" lon="5.43444">
        <ele>1170.06</ele>
        <time>2012-07-31T12:49:41Z</time>
      </trkpt>
      <trkpt lat="45.08332" lon="5.43436">
        <ele>1169.1</ele>
        <time>2012-07-31T12:49:50Z</time>
      </trkpt>
      <trkpt lat="45.08318" lon="5.43422">
        <ele>1168.14</ele>
        <time>2012-07-31T12:50:05Z</time>
      </trkpt>
      <trkpt lat="45.08316" lon="5.43419">
        <ele>1168.14</ele>
        <time>2012-07-31T12:50:07Z</time>
      </trkpt>
      <trkpt lat="45.0831" lon="5.43404">
        <ele>1167.66</ele>
        <time>2012-07-31T12:50:17Z</time>
      </trkpt>
      <trkpt lat="45.08302" lon="5.43387">
        <ele>1169.1</ele>
        <time>2012-07-31T12:50:31Z</time>
      </trkpt>
      <trkpt lat="45.08302" lon="5.43386">
        <ele>1170.06</ele>
        <time>2012-07-31T12:50:32Z</time>
      </trkpt>
      <trkpt lat="45.08302" lon="5.43366">
        <ele>1170.06</ele>
        <time>2012-07-31T12:50:44Z</time>
      </trkpt>
      <trkpt lat="45.08301" lon="5.43347">
        <ele>1168.62</ele>
        <time>2012-07-31T12:50:56Z</time>
      </trkpt>
      <trkpt lat="45.08302" lon="5.4334">
        <ele>1168.62</ele>
        <time>2012-07-31T12:51:01Z</time>
      </trkpt>
      <trkpt lat="45.08302" lon="5.43332">
        <ele>1170.06</ele>
        <time>2012-07-31T12:51:09Z</time>
      </trkpt>
      <trkpt lat="45.083" lon="5.43326">
        <ele>1170.06</ele>
        <time>2012-07-31T12:51:13Z</time>
      </trkpt>
      <trkpt lat="45.08302" lon="5.43304">
        <ele>1168.14</ele>
        <time>2012-07-31T12:51:24Z</time>
      </trkpt>
      <trkpt lat="45.08303" lon="5.43303">
        <ele>1168.14</ele>
        <time>2012-07-31T12:51:25Z</time>
      </trkpt>
      <trkpt lat="45.08296" lon="5.4328">
        <ele>1169.58</ele>
        <time>2012-07-31T12:51:38Z</time>
      </trkpt>
      <trkpt lat="45.08287" lon="5.43264">
        <ele>1169.58</ele>
        <time>2012-07-31T12:51:52Z</time>
      </trkpt>
      <trkpt lat="45.08287" lon="5.43263">
        <ele>1170.06</ele>
        <time>2012-07-31T12:51:59Z</time>
      </trkpt>
      <trkpt lat="45.08279" lon="5.43259">
        <ele>1170.06</ele>
        <time>2012-07-31T12:52:09Z</time>
      </trkpt>
      <trkpt lat="45.08274" lon="5.43258">
        <ele>1168.62</ele>
        <time>2012-07-31T12:52:14Z</time>
      </trkpt>
      <trkpt lat="45.08269" lon="5.43256">
        <ele>1168.14</ele>
        <time>2012-07-31T12:52:17Z</time>
      </trkpt>
      <trkpt lat="45.08263" lon="5.43253">
        <ele>1167.66</ele>
        <time>2012-07-31T12:52:22Z</time>
      </trkpt>
      <trkpt lat="45.08258" lon="5.4325">
        <ele>1166.7</ele>
        <time>2012-07-31T12:52:30Z</time>
      </trkpt>
      <trkpt lat="45.08249" lon="5.43246">
        <ele>1165.26</ele>
        <time>2012-07-31T12:52:36Z</time>
      </trkpt>
      <trkpt lat="45.08236" lon="5.43238">
        <ele>1163.33</ele>
        <time>2012-07-31T12:52:48Z</time>
      </trkpt>
      <trkpt lat="45.08223" lon="5.43233">
        <ele>1164.77</ele>
        <time>2012-07-31T12:52:59Z</time>
      </trkpt>
      <trkpt lat="45.08211" lon="5.4323">
        <ele>1168.14</ele>
        <time>2012-07-31T12:53:11Z</time>
      </trkpt>
      <trkpt lat="45.08204" lon="5.43225">
        <ele>1169.1</ele>
        <time>2012-07-31T12:53:22Z</time>
      </trkpt>
      <trkpt lat="45.082" lon="5.43225">
        <ele>1168.62</ele>
        <time>2012-07-31T12:53:26Z</time>
      </trkpt>
      <trkpt lat="45.08197" lon="5.43222">
        <ele>1168.14</ele>
        <time>2012-07-31T12:53:30Z</time>
      </trkpt>
      <trkpt lat="45.08187" lon="5.43208">
        <ele>1164.29</ele>
        <time>2012-07-31T12:53:41Z</time>
      </trkpt>
      <trkpt lat="45.08185" lon="5.43206">
        <ele>1163.81</ele>
        <time>2012-07-31T12:53:43Z</time>
      </trkpt>
      <trkpt lat="45.0818" lon="5.43199">
        <ele>1162.37</ele>
        <time>2012-07-31T12:53:48Z</time>
      </trkpt>
      <trkpt lat="45.08171" lon="5.4319">
        <ele>1160.93</ele>
        <time>2012-07-31T12:54:01Z</time>
      </trkpt>
      <trkpt lat="45.08164" lon="5.43185">
        <ele>1160.45</ele>
        <time>2012-07-31T12:54:07Z</time>
      </trkpt>
      <trkpt lat="45.08163" lon="5.43181">
        <ele>1160.45</ele>
        <time>2012-07-31T12:54:10Z</time>
      </trkpt>
      <trkpt lat="45.08161" lon="5.43179">
        <ele>1160.45</ele>
        <time>2012-07-31T12:54:14Z</time>
      </trkpt>
      <trkpt lat="45.08149" lon="5.43161">
        <ele>1169.58</ele>
        <time>2012-07-31T12:54:26Z</time>
      </trkpt>
      <trkpt lat="45.08139" lon="5.4315">
        <ele>1170.54</ele>
        <time>2012-07-31T12:54:38Z</time>
      </trkpt>
      <trkpt lat="45.08131" lon="5.43135">
        <ele>1168.14</ele>
        <time>2012-07-31T12:54:52Z</time>
      </trkpt>
      <trkpt lat="45.08124" lon="5.43122">
        <ele>1166.22</ele>
        <time>2012-07-31T12:55:04Z</time>
      </trkpt>
      <trkpt lat="45.0812" lon="5.43116">
        <ele>1165.74</ele>
        <time>2012-07-31T12:55:10Z</time>
      </trkpt>
      <trkpt lat="45.08117" lon="5.43114">
        <ele>1166.7</ele>
        <time>2012-07-31T12:55:13Z</time>
      </trkpt>
      <trkpt lat="45.08112" lon="5.43103">
        <ele>1167.66</ele>
        <time>2012-07-31T12:55:24Z</time>
      </trkpt>
      <trkpt lat="45.08109" lon="5.43101">
        <ele>1169.1</ele>
        <time>2012-07-31T12:55:26Z</time>
      </trkpt>
      <trkpt lat="45.08106" lon="5.43096">
        <ele>1169.1</ele>
        <time>2012-07-31T12:55:30Z</time>
      </trkpt>
      <trkpt lat="45.08102" lon="5.43088">
        <ele>1170.54</ele>
        <time>2012-07-31T12:55:35Z</time>
      </trkpt>
      <trkpt lat="45.08094" lon="5.43078">
        <ele>1173.91</ele>
        <time>2012-07-31T12:55:42Z</time>
      </trkpt>
      <trkpt lat="45.08087" lon="5.43071">
        <ele>1173.91</ele>
        <time>2012-07-31T12:55:49Z</time>
      </trkpt>
      <trkpt lat="45.08079" lon="5.43061">
        <ele>1173.91</ele>
        <time>2012-07-31T12:55:59Z</time>
      </trkpt>
      <trkpt lat="45.08076" lon="5.43057">
        <ele>1172.95</ele>
        <time>2012-07-31T12:56:02Z</time>
      </trkpt>
      <trkpt lat="45.08071" lon="5.43046">
        <ele>1171.98</ele>
        <time>2012-07-31T12:56:14Z</time>
      </trkpt>
      <trkpt lat="45.08067" lon="5.43041">
        <ele>1171.98</ele>
        <time>2012-07-31T12:56:21Z</time>
      </trkpt>
      <trkpt lat="45.08061" lon="5.43031">
        <ele>1169.1</ele>
        <time>2012-07-31T12:56:30Z</time>
      </trkpt>
      <trkpt lat="45.08058" lon="5.4303">
        <ele>1168.62</ele>
        <time>2012-07-31T12:56:32Z</time>
      </trkpt>
      <trkpt lat="45.08055" lon="5.43026">
        <ele>1168.14</ele>
        <time>2012-07-31T12:56:36Z</time>
      </trkpt>
      <trkpt lat="45.08049" lon="5.43023">
        <ele>1166.7</ele>
        <time>2012-07-31T12:56:41Z</time>
      </trkpt>
      <trkpt lat="45.08039" lon="5.43014">
        <ele>1167.18</ele>
        <time>2012-07-31T12:56:50Z</time>
      </trkpt>
      <trkpt lat="45.08036" lon="5.4301">
        <ele>1168.14</ele>
        <time>2012-07-31T12:56:59Z</time>
      </trkpt>
      <trkpt lat="45.08034" lon="5.43006">
        <ele>1168.62</ele>
        <time>2012-07-31T12:57:01Z</time>
      </trkpt>
      <trkpt lat="45.08031" lon="5.43003">
        <ele>1168.62</ele>
        <time>2012-07-31T12:57:04Z</time>
      </trkpt>
      <trkpt lat="45.08025" lon="5.43003">
        <ele>1167.18</ele>
        <time>2012-07-31T12:57:10Z</time>
      </trkpt>
      <trkpt lat="45.0802" lon="5.42997">
        <ele>1165.26</ele>
        <time>2012-07-31T12:57:16Z</time>
      </trkpt>
      <trkpt lat="45.08007" lon="5.42985">
        <ele>1163.33</ele>
        <time>2012-07-31T12:57:28Z</time>
      </trkpt>
      <trkpt lat="45.08004" lon="5.42977">
        <ele>1161.41</ele>
        <time>2012-07-31T12:57:33Z</time>
      </trkpt>
      <trkpt lat="45.08003" lon="5.42974">
        <ele>1160.45</ele>
        <time>2012-07-31T12:57:35Z</time>
      </trkpt>
      <trkpt lat="45.08" lon="5.42972">
        <ele>1159.49</ele>
        <time>2012-07-31T12:57:38Z</time>
      </trkpt>
      <trkpt lat="45.07996" lon="5.42964">
        <ele>1157.08</ele>
        <time>2012-07-31T12:57:46Z</time>
      </trkpt>
      <trkpt lat="45.07984" lon="5.42956">
        <ele>1159.01</ele>
        <time>2012-07-31T12:57:58Z</time>
      </trkpt>
      <trkpt lat="45.07983" lon="5.42956">
        <ele>1159.97</ele>
        <time>2012-07-31T12:57:59Z</time>
      </trkpt>
      <trkpt lat="45.07973" lon="5.4295">
        <ele>1162.37</ele>
        <time>2012-07-31T12:58:09Z</time>
      </trkpt>
      <trkpt lat="45.07965" lon="5.42945">
        <ele>1165.26</ele>
        <time>2012-07-31T12:58:21Z</time>
      </trkpt>
      <trkpt lat="45.07961" lon="5.42944">
        <ele>1165.74</ele>
        <time>2012-07-31T12:58:24Z</time>
      </trkpt>
      <trkpt lat="45.07956" lon="5.42946">
        <ele>1165.26</ele>
        <time>2012-07-31T12:58:27Z</time>
      </trkpt>
      <trkpt lat="45.0795" lon="5.42945">
        <ele>1165.74</ele>
        <time>2012-07-31T12:58:40Z</time>
      </trkpt>
      <trkpt lat="45.07949" lon="5.42945">
        <ele>1165.74</ele>
        <time>2012-07-31T12:58:41Z</time>
      </trkpt>
      <trkpt lat="45.07946" lon="5.42945">
        <ele>1166.22</ele>
        <time>2012-07-31T12:58:43Z</time>
      </trkpt>
      <trkpt lat="45.07937" lon="5.42945">
        <ele>1166.22</ele>
        <time>2012-07-31T12:58:50Z</time>
      </trkpt>
      <trkpt lat="45.07921" lon="5.4294">
        <ele>1163.33</ele>
        <time>2012-07-31T12:59:02Z</time>
      </trkpt>
      <trkpt lat="45.07917" lon="5.4294">
        <ele>1161.89</ele>
        <time>2012-07-31T12:59:12Z</time>
      </trkpt>
      <trkpt lat="45.07906" lon="5.42935">
        <ele>1160.45</ele>
        <time>2012-07-31T12:59:25Z</time>
      </trkpt>
      <trkpt lat="45.07895" lon="5.42931">
        <ele>1160.45</ele>
        <time>2012-07-31T12:59:37Z</time>
      </trkpt>
      <trkpt lat="45.07887" lon="5.42926">
        <ele>1160.45</ele>
        <time>2012-07-31T12:59:52Z</time>
      </trkpt>
      <trkpt lat="45.07887" lon="5.42927">
        <ele>1159.97</ele>
        <time>2012-07-31T13:00:12Z</time>
      </trkpt>
      <trkpt lat="45.07886" lon="5.42927">
        <ele>1159.97</ele>
        <time>2012-07-31T13:00:32Z</time>
      </trkpt>
      <trkpt lat="45.07876" lon="5.42927">
        <ele>1160.45</ele>
        <time>2012-07-31T13:00:45Z</time>
      </trkpt>
      <trkpt lat="45.07868" lon="5.42924">
        <ele>1159.49</ele>
        <time>2012-07-31T13:00:51Z</time>
      </trkpt>
      <trkpt lat="45.07852" lon="5.42919">
        <ele>1155.16</ele>
        <time>2012-07-31T13:01:03Z</time>
      </trkpt>
      <trkpt lat="45.07848" lon="5.42919">
        <ele>1155.16</ele>
        <time>2012-07-31T13:01:05Z</time>
      </trkpt>
      <trkpt lat="45.0784" lon="5.42917">
        <ele>1155.16</ele>
        <time>2012-07-31T13:01:11Z</time>
      </trkpt>
      <trkpt lat="45.07832" lon="5.42911">
        <ele>1152.28</ele>
        <time>2012-07-31T13:01:23Z</time>
      </trkpt>
      <trkpt lat="45.07827" lon="5.42913">
        <ele>1150.84</ele>
        <time>2012-07-31T13:01:34Z</time>
      </trkpt>
      <trkpt lat="45.07827" lon="5.42915">
        <ele>1150.35</ele>
        <time>2012-07-31T13:01:37Z</time>
      </trkpt>
      <trkpt lat="45.07824" lon="5.42918">
        <ele>1148.91</ele>
        <time>2012-07-31T13:01:41Z</time>
      </trkpt>
      <trkpt lat="45.07822" lon="5.42919">
        <ele>1148.43</ele>
        <time>2012-07-31T13:01:44Z</time>
      </trkpt>
      <trkpt lat="45.07821" lon="5.42927">
        <ele>1148.43</ele>
        <time>2012-07-31T13:01:48Z</time>
      </trkpt>
      <trkpt lat="45.07821" lon="5.42935">
        <ele>1149.39</ele>
        <time>2012-07-31T13:02:00Z</time>
      </trkpt>
      <trkpt lat="45.07824" lon="5.42937">
        <ele>1149.39</ele>
        <time>2012-07-31T13:02:13Z</time>
      </trkpt>
      <trkpt lat="45.07824" lon="5.42938">
        <ele>1149.39</ele>
        <time>2012-07-31T13:02:19Z</time>
      </trkpt>
      <trkpt lat="45.07824" lon="5.42953">
        <ele>1147.95</ele>
        <time>2012-07-31T13:02:29Z</time>
      </trkpt>
      <trkpt lat="45.07827" lon="5.42962">
        <ele>1144.59</ele>
        <time>2012-07-31T13:02:36Z</time>
      </trkpt>
      <trkpt lat="45.0783" lon="5.42966">
        <ele>1142.66</ele>
        <time>2012-07-31T13:02:42Z</time>
      </trkpt>
      <trkpt lat="45.07829" lon="5.42979">
        <ele>1138.34</ele>
        <time>2012-07-31T13:02:53Z</time>
      </trkpt>
      <trkpt lat="45.07823" lon="5.42987">
        <ele>1130.65</ele>
        <time>2012-07-31T13:03:02Z</time>
      </trkpt>
      <trkpt lat="45.07822" lon="5.4299">
        <ele>1128.24</ele>
        <time>2012-07-31T13:03:08Z</time>
      </trkpt>
      <trkpt lat="45.07823" lon="5.43005">
        <ele>1128.73</ele>
        <time>2012-07-31T13:03:19Z</time>
      </trkpt>
      <trkpt lat="45.07823" lon="5.43008">
        <ele>1128.73</ele>
        <time>2012-07-31T13:03:21Z</time>
      </trkpt>
      <trkpt lat="45.07823" lon="5.43012">
        <ele>1128.73</ele>
        <time>2012-07-31T13:03:25Z</time>
      </trkpt>
      <trkpt lat="45.07825" lon="5.43019">
        <ele>1129.69</ele>
        <time>2012-07-31T13:03:28Z</time>
      </trkpt>
      <trkpt lat="45.07827" lon="5.43036">
        <ele>1127.28</ele>
        <time>2012-07-31T13:03:38Z</time>
      </trkpt>
      <trkpt lat="45.07827" lon="5.43039">
        <ele>1126.32</ele>
        <time>2012-07-31T13:03:52Z</time>
      </trkpt>
      <trkpt lat="45.07827" lon="5.4304">
        <ele>1126.32</ele>
        <time>2012-07-31T13:04:12Z</time>
      </trkpt>
      <trkpt lat="45.07829" lon="5.43041">
        <ele>1127.76</ele>
        <time>2012-07-31T13:04:19Z</time>
      </trkpt>
      <trkpt lat="45.07827" lon="5.43041">
        <ele>1127.76</ele>
        <time>2012-07-31T13:04:32Z</time>
      </trkpt>
      <trkpt lat="45.07827" lon="5.4304">
        <ele>1127.28</ele>
        <time>2012-07-31T13:04:34Z</time>
      </trkpt>
      <trkpt lat="45.07828" lon="5.43044">
        <ele>1124.88</ele>
        <time>2012-07-31T13:04:42Z</time>
      </trkpt>
      <trkpt lat="45.07829" lon="5.43043">
        <ele>1124.88</ele>
        <time>2012-07-31T13:04:45Z</time>
      </trkpt>
      <trkpt lat="45.07828" lon="5.43043">
        <ele>1126.32</ele>
        <time>2012-07-31T13:04:56Z</time>
      </trkpt>
      <trkpt lat="45.07827" lon="5.43044">
        <ele>1125.84</ele>
        <time>2012-07-31T13:05:10Z</time>
      </trkpt>
      <trkpt lat="45.07827" lon="5.43044">
        <ele>1125.84</ele>
        <time>2012-07-31T13:05:11Z</time>
      </trkpt>
      <trkpt lat="45.07826" lon="5.43045">
        <ele>1125.36</ele>
        <time>2012-07-31T13:05:16Z</time>
      </trkpt>
      <trkpt lat="45.07825" lon="5.43046">
        <ele>1124.4</ele>
        <time>2012-07-31T13:05:25Z</time>
      </trkpt>
      <trkpt lat="45.07823" lon="5.43046">
        <ele>1124.4</ele>
        <time>2012-07-31T13:05:27Z</time>
      </trkpt>
      <trkpt lat="45.07824" lon="5.43047">
        <ele>1124.4</ele>
        <time>2012-07-31T13:05:28Z</time>
      </trkpt>
      <trkpt lat="45.07826" lon="5.43048">
        <ele>1124.4</ele>
        <time>2012-07-31T13:05:29Z</time>
      </trkpt>
      <trkpt lat="45.07825" lon="5.43053">
        <ele>1124.4</ele>
        <time>2012-07-31T13:05:32Z</time>
      </trkpt>
      <trkpt lat="45.07828" lon="5.43057">
        <ele>1125.84</ele>
        <time>2012-07-31T13:05:35Z</time>
      </trkpt>
      <trkpt lat="45.07829" lon="5.43065">
        <ele>1125.84</ele>
        <time>2012-07-31T13:05:40Z</time>
      </trkpt>
      <trkpt lat="45.07832" lon="5.43072">
        <ele>1126.8</ele>
        <time>2012-07-31T13:05:44Z</time>
      </trkpt>
      <trkpt lat="45.07833" lon="5.43075">
        <ele>1126.8</ele>
        <time>2012-07-31T13:05:46Z</time>
      </trkpt>
      <trkpt lat="45.07834" lon="5.43081">
        <ele>1128.24</ele>
        <time>2012-07-31T13:05:49Z</time>
      </trkpt>
      <trkpt lat="45.07834" lon="5.43097">
        <ele>1129.69</ele>
        <time>2012-07-31T13:06:00Z</time>
      </trkpt>
      <trkpt lat="45.07833" lon="5.431">
        <ele>1128.73</ele>
        <time>2012-07-31T13:06:03Z</time>
      </trkpt>
      <trkpt lat="45.07833" lon="5.43111">
        <ele>1127.76</ele>
        <time>2012-07-31T13:06:11Z</time>
      </trkpt>
      <trkpt lat="45.07829" lon="5.43117">
        <ele>1126.8</ele>
        <time>2012-07-31T13:06:17Z</time>
      </trkpt>
      <trkpt lat="45.07817" lon="5.43129">
        <ele>1124.88</ele>
        <time>2012-07-31T13:06:32Z</time>
      </trkpt>
      <trkpt lat="45.07815" lon="5.43131">
        <ele>1123.92</ele>
        <time>2012-07-31T13:06:42Z</time>
      </trkpt>
      <trkpt lat="45.07801" lon="5.43132">
        <ele>1121.03</ele>
        <time>2012-07-31T13:06:51Z</time>
      </trkpt>
      <trkpt lat="45.07798" lon="5.43132">
        <ele>1120.55</ele>
        <time>2012-07-31T13:07:01Z</time>
      </trkpt>
      <trkpt lat="45.07793" lon="5.43135">
        <ele>1119.59</ele>
        <time>2012-07-31T13:07:06Z</time>
      </trkpt>
      <trkpt lat="45.07789" lon="5.43148">
        <ele>1118.63</ele>
        <time>2012-07-31T13:07:10Z</time>
      </trkpt>
      <trkpt lat="45.07789" lon="5.4316">
        <ele>1118.63</ele>
        <time>2012-07-31T13:07:17Z</time>
      </trkpt>
      <trkpt lat="45.07789" lon="5.4317">
        <ele>1116.23</ele>
        <time>2012-07-31T13:07:30Z</time>
      </trkpt>
      <trkpt lat="45.0779" lon="5.43171">
        <ele>1116.23</ele>
        <time>2012-07-31T13:07:44Z</time>
      </trkpt>
      <trkpt lat="45.0779" lon="5.43173">
        <ele>1115.75</ele>
        <time>2012-07-31T13:07:55Z</time>
      </trkpt>
      <trkpt lat="45.07781" lon="5.43186">
        <ele>1115.75</ele>
        <time>2012-07-31T13:08:03Z</time>
      </trkpt>
      <trkpt lat="45.07776" lon="5.43185">
        <ele>1115.75</ele>
        <time>2012-07-31T13:08:06Z</time>
      </trkpt>
      <trkpt lat="45.0776" lon="5.43188">
        <ele>1115.75</ele>
        <time>2012-07-31T13:08:12Z</time>
      </trkpt>
      <trkpt lat="45.07749" lon="5.43183">
        <ele>1116.71</ele>
        <time>2012-07-31T13:08:16Z</time>
      </trkpt>
      <trkpt lat="45.07719" lon="5.43179">
        <ele>1115.75</ele>
        <time>2012-07-31T13:08:25Z</time>
      </trkpt>
      <trkpt lat="45.07705" lon="5.43172">
        <ele>1112.38</ele>
        <time>2012-07-31T13:08:34Z</time>
      </trkpt>
      <trkpt lat="45.07695" lon="5.4317">
        <ele>1109.02</ele>
        <time>2012-07-31T13:08:45Z</time>
      </trkpt>
      <trkpt lat="45.07685" lon="5.43166">
        <ele>1107.58</ele>
        <time>2012-07-31T13:08:59Z</time>
      </trkpt>
      <trkpt lat="45.07681" lon="5.43157">
        <ele>1105.65</ele>
        <time>2012-07-31T13:09:06Z</time>
      </trkpt>
      <trkpt lat="45.07671" lon="5.43149">
        <ele>1101.81</ele>
        <time>2012-07-31T13:09:21Z</time>
      </trkpt>
      <trkpt lat="45.07671" lon="5.43149">
        <ele>1101.81</ele>
        <time>2012-07-31T13:09:42Z</time>
      </trkpt>
      <trkpt lat="45.07671" lon="5.43148">
        <ele>1101.33</ele>
        <time>2012-07-31T13:09:58Z</time>
      </trkpt>
      <trkpt lat="45.0767" lon="5.43148">
        <ele>1101.33</ele>
        <time>2012-07-31T13:10:17Z</time>
      </trkpt>
      <trkpt lat="45.0767" lon="5.43153">
        <ele>1099.89</ele>
        <time>2012-07-31T13:10:30Z</time>
      </trkpt>
      <trkpt lat="45.0767" lon="5.43151">
        <ele>1099.89</ele>
        <time>2012-07-31T13:10:46Z</time>
      </trkpt>
      <trkpt lat="45.0767" lon="5.43151">
        <ele>1099.89</ele>
        <time>2012-07-31T13:10:47Z</time>
      </trkpt>
      <trkpt lat="45.07668" lon="5.43145">
        <ele>1098.92</ele>
        <time>2012-07-31T13:10:53Z</time>
      </trkpt>
      <trkpt lat="45.07665" lon="5.4314">
        <ele>1097.96</ele>
        <time>2012-07-31T13:10:58Z</time>
      </trkpt>
      <trkpt lat="45.07663" lon="5.43137">
        <ele>1097.48</ele>
        <time>2012-07-31T13:11:00Z</time>
      </trkpt>
      <trkpt lat="45.07653" lon="5.43141">
        <ele>1095.56</ele>
        <time>2012-07-31T13:11:10Z</time>
      </trkpt>
      <trkpt lat="45.0765" lon="5.43143">
        <ele>1095.08</ele>
        <time>2012-07-31T13:11:23Z</time>
      </trkpt>
      <trkpt lat="45.0765" lon="5.43143">
        <ele>1095.08</ele>
        <time>2012-07-31T13:11:25Z</time>
      </trkpt>
      <trkpt lat="45.07648" lon="5.43145">
        <ele>1095.56</ele>
        <time>2012-07-31T13:11:28Z</time>
      </trkpt>
      <trkpt lat="45.07638" lon="5.43145">
        <ele>1094.6</ele>
        <time>2012-07-31T13:11:38Z</time>
      </trkpt>
      <trkpt lat="45.07634" lon="5.43147">
        <ele>1093.64</ele>
        <time>2012-07-31T13:11:44Z</time>
      </trkpt>
      <trkpt lat="45.07631" lon="5.43147">
        <ele>1092.2</ele>
        <time>2012-07-31T13:11:47Z</time>
      </trkpt>
      <trkpt lat="45.07624" lon="5.4315">
        <ele>1090.27</ele>
        <time>2012-07-31T13:11:58Z</time>
      </trkpt>
      <trkpt lat="45.07622" lon="5.43151">
        <ele>1089.79</ele>
        <time>2012-07-31T13:12:02Z</time>
      </trkpt>
      <trkpt lat="45.07618" lon="5.43155">
        <ele>1089.79</ele>
        <time>2012-07-31T13:12:14Z</time>
      </trkpt>
      <trkpt lat="45.07614" lon="5.43156">
        <ele>1088.83</ele>
        <time>2012-07-31T13:12:17Z</time>
      </trkpt>
      <trkpt lat="45.07611" lon="5.43156">
        <ele>1087.39</ele>
        <time>2012-07-31T13:12:22Z</time>
      </trkpt>
      <trkpt lat="45.07607" lon="5.43157">
        <ele>1084.99</ele>
        <time>2012-07-31T13:12:30Z</time>
      </trkpt>
      <trkpt lat="45.07603" lon="5.43158">
        <ele>1084.02</ele>
        <time>2012-07-31T13:12:34Z</time>
      </trkpt>
      <trkpt lat="45.07595" lon="5.43161">
        <ele>1083.54</ele>
        <time>2012-07-31T13:12:40Z</time>
      </trkpt>
      <trkpt lat="45.07585" lon="5.43164">
        <ele>1082.58</ele>
        <time>2012-07-31T13:12:47Z</time>
      </trkpt>
      <trkpt lat="45.07574" lon="5.4317">
        <ele>1081.14</ele>
        <time>2012-07-31T13:12:56Z</time>
      </trkpt>
      <trkpt lat="45.07572" lon="5.4317">
        <ele>1080.18</ele>
        <time>2012-07-31T13:12:58Z</time>
      </trkpt>
      <trkpt lat="45.07567" lon="5.43169">
        <ele>1078.26</ele>
        <time>2012-07-31T13:13:04Z</time>
      </trkpt>
      <trkpt lat="45.07565" lon="5.43169">
        <ele>1076.81</ele>
        <time>2012-07-31T13:13:15Z</time>
      </trkpt>
      <trkpt lat="45.07565" lon="5.43169">
        <ele>1076.81</ele>
        <time>2012-07-31T13:13:19Z</time>
      </trkpt>
      <trkpt lat="45.07557" lon="5.43167">
        <ele>1075.37</ele>
        <time>2012-07-31T13:13:26Z</time>
      </trkpt>
      <trkpt lat="45.07553" lon="5.43169">
        <ele>1074.41</ele>
        <time>2012-07-31T13:13:29Z</time>
      </trkpt>
      <trkpt lat="45.07553" lon="5.43171">
        <ele>1073.93</ele>
        <time>2012-07-31T13:13:31Z</time>
      </trkpt>
      <trkpt lat="45.07553" lon="5.43183">
        <ele>1072.49</ele>
        <time>2012-07-31T13:13:43Z</time>
      </trkpt>
      <trkpt lat="45.0755" lon="5.43194">
        <ele>1071.53</ele>
        <time>2012-07-31T13:13:50Z</time>
      </trkpt>
      <trkpt lat="45.07549" lon="5.43199">
        <ele>1071.05</ele>
        <time>2012-07-31T13:13:54Z</time>
      </trkpt>
      <trkpt lat="45.07545" lon="5.43208">
        <ele>1070.57</ele>
        <time>2012-07-31T13:14:05Z</time>
      </trkpt>
      <trkpt lat="45.07546" lon="5.4321">
        <ele>1070.57</ele>
        <time>2012-07-31T13:14:26Z</time>
      </trkpt>
      <trkpt lat="45.07551" lon="5.432">
        <ele>1070.08</ele>
        <time>2012-07-31T13:14:44Z</time>
      </trkpt>
      <trkpt lat="45.07552" lon="5.43199">
        <ele>1070.08</ele>
        <time>2012-07-31T13:14:46Z</time>
      </trkpt>
      <trkpt lat="45.07559" lon="5.43195">
        <ele>1069.6</ele>
        <time>2012-07-31T13:14:51Z</time>
      </trkpt>
      <trkpt lat="45.07545" lon="5.43198">
        <ele>1069.12</ele>
        <time>2012-07-31T13:15:03Z</time>
      </trkpt>
      <trkpt lat="45.07538" lon="5.43202">
        <ele>1069.6</ele>
        <time>2012-07-31T13:15:22Z</time>
      </trkpt>
      <trkpt lat="45.07545" lon="5.43197">
        <ele>1069.6</ele>
        <time>2012-07-31T13:15:43Z</time>
      </trkpt>
      <trkpt lat="45.07549" lon="5.43194">
        <ele>1069.12</ele>
        <time>2012-07-31T13:16:02Z</time>
      </trkpt>
      <trkpt lat="45.07546" lon="5.43193">
        <ele>1069.12</ele>
        <time>2012-07-31T13:16:20Z</time>
      </trkpt>
      <trkpt lat="45.07547" lon="5.43193">
        <ele>1069.12</ele>
        <time>2012-07-31T13:16:21Z</time>
      </trkpt>
      <trkpt lat="45.0755" lon="5.43188">
        <ele>1069.6</ele>
        <time>2012-07-31T13:16:25Z</time>
      </trkpt>
      <trkpt lat="45.07562" lon="5.43183">
        <ele>1070.57</ele>
        <time>2012-07-31T13:16:36Z</time>
      </trkpt>
      <trkpt lat="45.07555" lon="5.43198">
        <ele>1071.53</ele>
        <time>2012-07-31T13:16:56Z</time>
      </trkpt>
      <trkpt lat="45.07545" lon="5.43217">
        <ele>1072.97</ele>
        <time>2012-07-31T13:17:09Z</time>
      </trkpt>
      <trkpt lat="45.07547" lon="5.43211">
        <ele>1073.45</ele>
        <time>2012-07-31T13:17:22Z</time>
      </trkpt>
      <trkpt lat="45.0755" lon="5.43195">
        <ele>1070.57</ele>
        <time>2012-07-31T13:17:36Z</time>
      </trkpt>
      <trkpt lat="45.07552" lon="5.4319">
        <ele>1070.57</ele>
        <time>2012-07-31T13:17:40Z</time>
      </trkpt>
      <trkpt lat="45.07553" lon="5.43177">
        <ele>1070.08</ele>
        <time>2012-07-31T13:17:48Z</time>
      </trkpt>
      <trkpt lat="45.07554" lon="5.43163">
        <ele>1071.05</ele>
        <time>2012-07-31T13:18:00Z</time>
      </trkpt>
      <trkpt lat="45.07552" lon="5.4316">
        <ele>1071.53</ele>
        <time>2012-07-31T13:18:17Z</time>
      </trkpt>
      <trkpt lat="45.07549" lon="5.43157">
        <ele>1071.53</ele>
        <time>2012-07-31T13:18:25Z</time>
      </trkpt>
      <trkpt lat="45.07541" lon="5.43149">
        <ele>1071.05</ele>
        <time>2012-07-31T13:18:30Z</time>
      </trkpt>
      <trkpt lat="45.0753" lon="5.43136">
        <ele>1070.08</ele>
        <time>2012-07-31T13:18:41Z</time>
      </trkpt>
      <trkpt lat="45.07518" lon="5.43121">
        <ele>1067.2</ele>
        <time>2012-07-31T13:18:54Z</time>
      </trkpt>
      <trkpt lat="45.07512" lon="5.43117">
        <ele>1066.24</ele>
        <time>2012-07-31T13:19:02Z</time>
      </trkpt>
      <trkpt lat="45.075" lon="5.43105">
        <ele>1065.28</ele>
        <time>2012-07-31T13:19:16Z</time>
      </trkpt>
      <trkpt lat="45.07494" lon="5.43101">
        <ele>1063.36</ele>
        <time>2012-07-31T13:19:23Z</time>
      </trkpt>
      <trkpt lat="45.07486" lon="5.43091">
        <ele>1060.95</ele>
        <time>2012-07-31T13:19:34Z</time>
      </trkpt>
      <trkpt lat="45.07478" lon="5.43082">
        <ele>1056.15</ele>
        <time>2012-07-31T13:19:47Z</time>
      </trkpt>
      <trkpt lat="45.07473" lon="5.43078">
        <ele>1056.15</ele>
        <time>2012-07-31T13:19:53Z</time>
      </trkpt>
      <trkpt lat="45.07467" lon="5.43075">
        <ele>1057.59</ele>
        <time>2012-07-31T13:19:58Z</time>
      </trkpt>
      <trkpt lat="45.07457" lon="5.43071">
        <ele>1059.03</ele>
        <time>2012-07-31T13:20:06Z</time>
      </trkpt>
      <trkpt lat="45.07446" lon="5.43064">
        <ele>1058.07</ele>
        <time>2012-07-31T13:20:16Z</time>
      </trkpt>
      <trkpt lat="45.07445" lon="5.43063">
        <ele>1058.07</ele>
        <time>2012-07-31T13:20:18Z</time>
      </trkpt>
      <trkpt lat="45.07444" lon="5.43062">
        <ele>1058.55</ele>
        <time>2012-07-31T13:20:29Z</time>
      </trkpt>
      <trkpt lat="45.07443" lon="5.43062">
        <ele>1058.55</ele>
        <time>2012-07-31T13:20:30Z</time>
      </trkpt>
      <trkpt lat="45.07438" lon="5.4306">
        <ele>1059.03</ele>
        <time>2012-07-31T13:20:34Z</time>
      </trkpt>
      <trkpt lat="45.07434" lon="5.43057">
        <ele>1059.51</ele>
        <time>2012-07-31T13:20:38Z</time>
      </trkpt>
      <trkpt lat="45.0743" lon="5.43054">
        <ele>1059.99</ele>
        <time>2012-07-31T13:20:42Z</time>
      </trkpt>
      <trkpt lat="45.07429" lon="5.4305">
        <ele>1059.99</ele>
        <time>2012-07-31T13:20:45Z</time>
      </trkpt>
      <trkpt lat="45.07426" lon="5.43044">
        <ele>1059.99</ele>
        <time>2012-07-31T13:20:49Z</time>
      </trkpt>
      <trkpt lat="45.07425" lon="5.43041">
        <ele>1060.47</ele>
        <time>2012-07-31T13:20:51Z</time>
      </trkpt>
      <trkpt lat="45.07414" lon="5.43025">
        <ele>1060.95</ele>
        <time>2012-07-31T13:21:05Z</time>
      </trkpt>
      <trkpt lat="45.07408" lon="5.43016">
        <ele>1059.99</ele>
        <time>2012-07-31T13:21:15Z</time>
      </trkpt>
      <trkpt lat="45.07397" lon="5.43001">
        <ele>1058.55</ele>
        <time>2012-07-31T13:21:30Z</time>
      </trkpt>
      <trkpt lat="45.07388" lon="5.42987">
        <ele>1055.67</ele>
        <time>2012-07-31T13:21:42Z</time>
      </trkpt>
      <trkpt lat="45.0738" lon="5.4297">
        <ele>1057.11</ele>
        <time>2012-07-31T13:21:57Z</time>
      </trkpt>
      <trkpt lat="45.07376" lon="5.42959">
        <ele>1053.26</ele>
        <time>2012-07-31T13:22:09Z</time>
      </trkpt>
      <trkpt lat="45.07374" lon="5.42955">
        <ele>1050.38</ele>
        <time>2012-07-31T13:22:20Z</time>
      </trkpt>
      <trkpt lat="45.07373" lon="5.42955">
        <ele>1049.9</ele>
        <time>2012-07-31T13:22:22Z</time>
      </trkpt>
      <trkpt lat="45.07369" lon="5.4295">
        <ele>1047.97</ele>
        <time>2012-07-31T13:22:27Z</time>
      </trkpt>
      <trkpt lat="45.07362" lon="5.4294">
        <ele>1050.86</ele>
        <time>2012-07-31T13:22:38Z</time>
      </trkpt>
      <trkpt lat="45.07352" lon="5.42929">
        <ele>1051.82</ele>
        <time>2012-07-31T13:22:49Z</time>
      </trkpt>
      <trkpt lat="45.07345" lon="5.42921">
        <ele>1053.26</ele>
        <time>2012-07-31T13:22:59Z</time>
      </trkpt>
      <trkpt lat="45.0733" lon="5.42903">
        <ele>1052.78</ele>
        <time>2012-07-31T13:23:12Z</time>
      </trkpt>
      <trkpt lat="45.07321" lon="5.42891">
        <ele>1054.22</ele>
        <time>2012-07-31T13:23:25Z</time>
      </trkpt>
      <trkpt lat="45.0731" lon="5.42877">
        <ele>1053.26</ele>
        <time>2012-07-31T13:23:40Z</time>
      </trkpt>
      <trkpt lat="45.07292" lon="5.42872">
        <ele>1056.15</ele>
        <time>2012-07-31T13:23:54Z</time>
      </trkpt>
      <trkpt lat="45.07282" lon="5.42866">
        <ele>1058.55</ele>
        <time>2012-07-31T13:24:09Z</time>
      </trkpt>
      <trkpt lat="45.07276" lon="5.42864">
        <ele>1059.03</ele>
        <time>2012-07-31T13:24:17Z</time>
      </trkpt>
      <trkpt lat="45.07267" lon="5.42864">
        <ele>1059.03</ele>
        <time>2012-07-31T13:24:25Z</time>
      </trkpt>
      <trkpt lat="45.07258" lon="5.4287">
        <ele>1061.43</ele>
        <time>2012-07-31T13:24:34Z</time>
      </trkpt>
      <trkpt lat="45.07255" lon="5.42871">
        <ele>1061.43</ele>
        <time>2012-07-31T13:24:36Z</time>
      </trkpt>
      <trkpt lat="45.07252" lon="5.42871">
        <ele>1061.43</ele>
        <time>2012-07-31T13:24:39Z</time>
      </trkpt>
      <trkpt lat="45.07241" lon="5.4288">
        <ele>1062.39</ele>
        <time>2012-07-31T13:24:51Z</time>
      </trkpt>
      <trkpt lat="45.07237" lon="5.42887">
        <ele>1062.87</ele>
        <time>2012-07-31T13:24:56Z</time>
      </trkpt>
      <trkpt lat="45.07234" lon="5.42892">
        <ele>1063.84</ele>
        <time>2012-07-31T13:25:00Z</time>
      </trkpt>
      <trkpt lat="45.07231" lon="5.42892">
        <ele>1064.32</ele>
        <time>2012-07-31T13:25:03Z</time>
      </trkpt>
      <trkpt lat="45.07228" lon="5.42894">
        <ele>1065.28</ele>
        <time>2012-07-31T13:25:07Z</time>
      </trkpt>
      <trkpt lat="45.07225" lon="5.42893">
        <ele>1065.28</ele>
        <time>2012-07-31T13:25:23Z</time>
      </trkpt>
      <trkpt lat="45.07222" lon="5.42888">
        <ele>1063.84</ele>
        <time>2012-07-31T13:25:28Z</time>
      </trkpt>
      <trkpt lat="45.07223" lon="5.42874">
        <ele>1063.36</ele>
        <time>2012-07-31T13:25:39Z</time>
      </trkpt>
      <trkpt lat="45.0722" lon="5.42869">
        <ele>1063.84</ele>
        <time>2012-07-31T13:25:46Z</time>
      </trkpt>
      <trkpt lat="45.07213" lon="5.42862">
        <ele>1063.84</ele>
        <time>2012-07-31T13:25:50Z</time>
      </trkpt>
      <trkpt lat="45.07211" lon="5.4286">
        <ele>1063.84</ele>
        <time>2012-07-31T13:26:07Z</time>
      </trkpt>
      <trkpt lat="45.07213" lon="5.42861">
        <ele>1063.84</ele>
        <time>2012-07-31T13:26:13Z</time>
      </trkpt>
      <trkpt lat="45.07217" lon="5.42865">
        <ele>1063.36</ele>
        <time>2012-07-31T13:26:16Z</time>
      </trkpt>
      <trkpt lat="45.07221" lon="5.42866">
        <ele>1063.36</ele>
        <time>2012-07-31T13:26:19Z</time>
      </trkpt>
      <trkpt lat="45.07224" lon="5.42861">
        <ele>1063.84</ele>
        <time>2012-07-31T13:26:31Z</time>
      </trkpt>
      <trkpt lat="45.07222" lon="5.42865">
        <ele>1064.32</ele>
        <time>2012-07-31T13:26:41Z</time>
      </trkpt>
      <trkpt lat="45.07222" lon="5.42866">
        <ele>1063.84</ele>
        <time>2012-07-31T13:26:59Z</time>
      </trkpt>
      <trkpt lat="45.07225" lon="5.42864">
        <ele>1065.28</ele>
        <time>2012-07-31T13:27:06Z</time>
      </trkpt>
      <trkpt lat="45.07224" lon="5.42863">
        <ele>1065.76</ele>
        <time>2012-07-31T13:27:11Z</time>
      </trkpt>
      <trkpt lat="45.07224" lon="5.42862">
        <ele>1067.2</ele>
        <time>2012-07-31T13:27:16Z</time>
      </trkpt>
      <trkpt lat="45.07222" lon="5.42867">
        <ele>1066.24</ele>
        <time>2012-07-31T13:27:20Z</time>
      </trkpt>
      <trkpt lat="45.07221" lon="5.42862">
        <ele>1066.24</ele>
        <time>2012-07-31T13:27:33Z</time>
      </trkpt>
      <trkpt lat="45.07222" lon="5.42862">
        <ele>1066.72</ele>
        <time>2012-07-31T13:27:48Z</time>
      </trkpt>
      <trkpt lat="45.07222" lon="5.42862">
        <ele>1066.72</ele>
        <time>2012-07-31T13:27:50Z</time>
      </trkpt>
      <trkpt lat="45.07218" lon="5.42869">
        <ele>1066.72</ele>
        <time>2012-07-31T13:27:57Z</time>
      </trkpt>
      <trkpt lat="45.07217" lon="5.4287">
        <ele>1067.68</ele>
        <time>2012-07-31T13:28:16Z</time>
      </trkpt>
      <trkpt lat="45.07218" lon="5.4287">
        <ele>1067.68</ele>
        <time>2012-07-31T13:28:18Z</time>
      </trkpt>
      <trkpt lat="45.07222" lon="5.42869">
        <ele>1067.68</ele>
        <time>2012-07-31T13:28:33Z</time>
      </trkpt>
      <trkpt lat="45.07223" lon="5.42869">
        <ele>1067.68</ele>
        <time>2012-07-31T13:28:56Z</time>
      </trkpt>
      <trkpt lat="45.07223" lon="5.42869">
        <ele>1067.68</ele>
        <time>2012-07-31T13:29:21Z</time>
      </trkpt>
      <trkpt lat="45.07224" lon="5.42867">
        <ele>1067.68</ele>
        <time>2012-07-31T13:29:33Z</time>
      </trkpt>
      <trkpt lat="45.07229" lon="5.42864">
        <ele>1067.68</ele>
        <time>2012-07-31T13:29:50Z</time>
      </trkpt>
      <trkpt lat="45.07223" lon="5.42866">
        <ele>1066.72</ele>
        <time>2012-07-31T13:30:08Z</time>
      </trkpt>
      <trkpt lat="45.07221" lon="5.42867">
        <ele>1066.72</ele>
        <time>2012-07-31T13:30:20Z</time>
      </trkpt>
      <trkpt lat="45.07221" lon="5.42867">
        <ele>1066.72</ele>
        <time>2012-07-31T13:30:41Z</time>
      </trkpt>
      <trkpt lat="45.07223" lon="5.42867">
        <ele>1066.72</ele>
        <time>2012-07-31T13:30:55Z</time>
      </trkpt>
      <trkpt lat="45.07229" lon="5.42867">
        <ele>1067.2</ele>
        <time>2012-07-31T13:31:11Z</time>
      </trkpt>
      <trkpt lat="45.07222" lon="5.4286">
        <ele>1066.72</ele>
        <time>2012-07-31T13:31:26Z</time>
      </trkpt>
      <trkpt lat="45.07222" lon="5.42864">
        <ele>1066.72</ele>
        <time>2012-07-31T13:31:41Z</time>
      </trkpt>
      <trkpt lat="45.07221" lon="5.42867">
        <ele>1066.72</ele>
        <time>2012-07-31T13:31:44Z</time>
      </trkpt>
      <trkpt lat="45.07225" lon="5.42868">
        <ele>1065.28</ele>
        <time>2012-07-31T13:31:57Z</time>
      </trkpt>
      <trkpt lat="45.07229" lon="5.42865">
        <ele>1065.76</ele>
        <time>2012-07-31T13:32:15Z</time>
      </trkpt>
      <trkpt lat="45.07216" lon="5.4287">
        <ele>1072.49</ele>
        <time>2012-07-31T13:33:16Z</time>
      </trkpt>
      <trkpt lat="45.0721" lon="5.42871">
        <ele>1071.05</ele>
        <time>2012-07-31T13:33:29Z</time>
      </trkpt>
      <trkpt lat="45.0721" lon="5.4287">
        <ele>1071.05</ele>
        <time>2012-07-31T13:33:55Z</time>
      </trkpt>
      <trkpt lat="45.0721" lon="5.4287">
        <ele>1070.57</ele>
        <time>2012-07-31T13:34:10Z</time>
      </trkpt>
      <trkpt lat="45.07211" lon="5.42874">
        <ele>1070.08</ele>
        <time>2012-07-31T13:34:34Z</time>
      </trkpt>
      <trkpt lat="45.07211" lon="5.42874">
        <ele>1070.08</ele>
        <time>2012-07-31T13:35:07Z</time>
      </trkpt>
      <trkpt lat="45.07203" lon="5.4288">
        <ele>1070.57</ele>
        <time>2012-07-31T13:35:23Z</time>
      </trkpt>
      <trkpt lat="45.07203" lon="5.4288">
        <ele>1071.05</ele>
        <time>2012-07-31T13:35:44Z</time>
      </trkpt>
      <trkpt lat="45.07202" lon="5.4288">
        <ele>1071.53</ele>
        <time>2012-07-31T13:36:06Z</time>
      </trkpt>
      <trkpt lat="45.07202" lon="5.4288">
        <ele>1071.53</ele>
        <time>2012-07-31T13:36:30Z</time>
      </trkpt>
      <trkpt lat="45.07204" lon="5.42878">
        <ele>1070.57</ele>
        <time>2012-07-31T13:36:51Z</time>
      </trkpt>
      <trkpt lat="45.07213" lon="5.42874">
        <ele>1067.2</ele>
        <time>2012-07-31T13:36:54Z</time>
      </trkpt>
      <trkpt lat="45.0723" lon="5.42857">
        <ele>1072.01</ele>
        <time>2012-07-31T13:37:10Z</time>
      </trkpt>
      <trkpt lat="45.07213" lon="5.42869">
        <ele>1068.16</ele>
        <time>2012-07-31T13:37:24Z</time>
      </trkpt>
      <trkpt lat="45.07208" lon="5.42871">
        <ele>1067.2</ele>
        <time>2012-07-31T13:37:39Z</time>
      </trkpt>
      <trkpt lat="45.07208" lon="5.42871">
        <ele>1066.72</ele>
        <time>2012-07-31T13:37:46Z</time>
      </trkpt>
      <trkpt lat="45.07212" lon="5.42872">
        <ele>1064.8</ele>
        <time>2012-07-31T13:37:56Z</time>
      </trkpt>
      <trkpt lat="45.07203" lon="5.42869">
        <ele>1063.84</ele>
        <time>2012-07-31T13:38:04Z</time>
      </trkpt>
      <trkpt lat="45.07197" lon="5.42863">
        <ele>1063.36</ele>
        <time>2012-07-31T13:38:17Z</time>
      </trkpt>
      <trkpt lat="45.07187" lon="5.42846">
        <ele>1062.39</ele>
        <time>2012-07-31T13:38:31Z</time>
      </trkpt>
      <trkpt lat="45.0718" lon="5.4283">
        <ele>1064.32</ele>
        <time>2012-07-31T13:38:45Z</time>
      </trkpt>
      <trkpt lat="45.0718" lon="5.42829">
        <ele>1064.8</ele>
        <time>2012-07-31T13:38:46Z</time>
      </trkpt>
      <trkpt lat="45.07174" lon="5.42812">
        <ele>1063.36</ele>
        <time>2012-07-31T13:38:59Z</time>
      </trkpt>
      <trkpt lat="45.07172" lon="5.42805">
        <ele>1062.87</ele>
        <time>2012-07-31T13:39:04Z</time>
      </trkpt>
      <trkpt lat="45.07169" lon="5.42794">
        <ele>1062.87</ele>
        <time>2012-07-31T13:39:15Z</time>
      </trkpt>
      <trkpt lat="45.07169" lon="5.42795">
        <ele>1062.39</ele>
        <time>2012-07-31T13:39:39Z</time>
      </trkpt>
      <trkpt lat="45.07163" lon="5.42789">
        <ele>1062.39</ele>
        <time>2012-07-31T13:40:00Z</time>
      </trkpt>
      <trkpt lat="45.07163" lon="5.42789">
        <ele>1061.91</ele>
        <time>2012-07-31T13:40:22Z</time>
      </trkpt>
      <trkpt lat="45.07159" lon="5.42793">
        <ele>1060.95</ele>
        <time>2012-07-31T13:40:26Z</time>
      </trkpt>
      <trkpt lat="45.07145" lon="5.42788">
        <ele>1059.51</ele>
        <time>2012-07-31T13:40:41Z</time>
      </trkpt>
      <trkpt lat="45.07136" lon="5.42792">
        <ele>1056.15</ele>
        <time>2012-07-31T13:40:51Z</time>
      </trkpt>
      <trkpt lat="45.07125" lon="5.42802">
        <ele>1053.26</ele>
        <time>2012-07-31T13:41:04Z</time>
      </trkpt>
      <trkpt lat="45.0712" lon="5.42805">
        <ele>1052.3</ele>
        <time>2012-07-31T13:41:11Z</time>
      </trkpt>
      <trkpt lat="45.07112" lon="5.42815">
        <ele>1053.74</ele>
        <time>2012-07-31T13:41:19Z</time>
      </trkpt>
      <trkpt lat="45.07107" lon="5.42826">
        <ele>1052.78</ele>
        <time>2012-07-31T13:41:33Z</time>
      </trkpt>
      <trkpt lat="45.07106" lon="5.42826">
        <ele>1052.3</ele>
        <time>2012-07-31T13:41:40Z</time>
      </trkpt>
      <trkpt lat="45.07093" lon="5.42835">
        <ele>1047.97</ele>
        <time>2012-07-31T13:41:55Z</time>
      </trkpt>
      <trkpt lat="45.07092" lon="5.42837">
        <ele>1047.49</ele>
        <time>2012-07-31T13:41:57Z</time>
      </trkpt>
      <trkpt lat="45.07079" lon="5.42852">
        <ele>1043.65</ele>
        <time>2012-07-31T13:42:12Z</time>
      </trkpt>
      <trkpt lat="45.07078" lon="5.42855">
        <ele>1043.17</ele>
        <time>2012-07-31T13:42:14Z</time>
      </trkpt>
      <trkpt lat="45.07076" lon="5.42858">
        <ele>1043.17</ele>
        <time>2012-07-31T13:42:16Z</time>
      </trkpt>
      <trkpt lat="45.07064" lon="5.42861">
        <ele>1039.8</ele>
        <time>2012-07-31T13:42:30Z</time>
      </trkpt>
      <trkpt lat="45.07063" lon="5.42861">
        <ele>1039.8</ele>
        <time>2012-07-31T13:42:31Z</time>
      </trkpt>
      <trkpt lat="45.07058" lon="5.42854">
        <ele>1031.15</ele>
        <time>2012-07-31T13:42:44Z</time>
      </trkpt>
      <trkpt lat="45.07055" lon="5.42833">
        <ele>1023.94</ele>
        <time>2012-07-31T13:42:58Z</time>
      </trkpt>
      <trkpt lat="45.07053" lon="5.42828">
        <ele>1025.38</ele>
        <time>2012-07-31T13:43:11Z</time>
      </trkpt>
      <trkpt lat="45.07057" lon="5.42827">
        <ele>1026.83</ele>
        <time>2012-07-31T13:43:22Z</time>
      </trkpt>
      <trkpt lat="45.07059" lon="5.42824">
        <ele>1026.83</ele>
        <time>2012-07-31T13:43:40Z</time>
      </trkpt>
      <trkpt lat="45.07059" lon="5.42824">
        <ele>1026.83</ele>
        <time>2012-07-31T13:44:05Z</time>
      </trkpt>
      <trkpt lat="45.0706" lon="5.42823">
        <ele>1029.71</ele>
        <time>2012-07-31T13:44:19Z</time>
      </trkpt>
      <trkpt lat="45.07058" lon="5.4282">
        <ele>1031.63</ele>
        <time>2012-07-31T13:44:35Z</time>
      </trkpt>
      <trkpt lat="45.07053" lon="5.42825">
        <ele>1033.55</ele>
        <time>2012-07-31T13:44:50Z</time>
      </trkpt>
      <trkpt lat="45.07049" lon="5.42826">
        <ele>1032.59</ele>
        <time>2012-07-31T13:45:08Z</time>
      </trkpt>
      <trkpt lat="45.07039" lon="5.42824">
        <ele>1032.11</ele>
        <time>2012-07-31T13:45:20Z</time>
      </trkpt>
      <trkpt lat="45.07037" lon="5.42823">
        <ele>1034.04</ele>
        <time>2012-07-31T13:45:37Z</time>
      </trkpt>
      <trkpt lat="45.07037" lon="5.42823">
        <ele>1034.04</ele>
        <time>2012-07-31T13:45:54Z</time>
      </trkpt>
      <trkpt lat="45.07035" lon="5.42818">
        <ele>1034.04</ele>
        <time>2012-07-31T13:46:12Z</time>
      </trkpt>
      <trkpt lat="45.07036" lon="5.42816">
        <ele>1037.4</ele>
        <time>2012-07-31T13:46:29Z</time>
      </trkpt>
      <trkpt lat="45.07036" lon="5.42818">
        <ele>1038.36</ele>
        <time>2012-07-31T13:46:46Z</time>
      </trkpt>
      <trkpt lat="45.07036" lon="5.42819">
        <ele>1038.84</ele>
        <time>2012-07-31T13:47:13Z</time>
      </trkpt>
      <trkpt lat="45.07034" lon="5.42818">
        <ele>1039.8</ele>
        <time>2012-07-31T13:47:30Z</time>
      </trkpt>
      <trkpt lat="45.07034" lon="5.42823">
        <ele>1039.8</ele>
        <time>2012-07-31T13:47:51Z</time>
      </trkpt>
      <trkpt lat="45.07034" lon="5.42823">
        <ele>1040.28</ele>
        <time>2012-07-31T13:48:17Z</time>
      </trkpt>
      <trkpt lat="45.07034" lon="5.42823">
        <ele>1040.28</ele>
        <time>2012-07-31T13:48:49Z</time>
      </trkpt>
      <trkpt lat="45.07034" lon="5.42823">
        <ele>1040.28</ele>
        <time>2012-07-31T13:49:20Z</time>
      </trkpt>
      <trkpt lat="45.07034" lon="5.42824">
        <ele>1040.28</ele>
        <time>2012-07-31T13:49:49Z</time>
      </trkpt>
      <trkpt lat="45.07035" lon="5.42825">
        <ele>1040.28</ele>
        <time>2012-07-31T13:50:15Z</time>
      </trkpt>
      <trkpt lat="45.07035" lon="5.42825">
        <ele>1040.28</ele>
        <time>2012-07-31T13:50:43Z</time>
      </trkpt>
      <trkpt lat="45.07035" lon="5.42825">
        <ele>1040.76</ele>
        <time>2012-07-31T13:51:09Z</time>
      </trkpt>
      <trkpt lat="45.07035" lon="5.42825">
        <ele>1040.76</ele>
        <time>2012-07-31T13:51:28Z</time>
      </trkpt>
      <trkpt lat="45.07035" lon="5.42825">
        <ele>1040.76</ele>
        <time>2012-07-31T13:51:44Z</time>
      </trkpt>
      <trkpt lat="45.07035" lon="5.42825">
        <ele>1040.76</ele>
        <time>2012-07-31T13:52:10Z</time>
      </trkpt>
      <trkpt lat="45.07036" lon="5.42826">
        <ele>1040.28</ele>
        <time>2012-07-31T13:52:37Z</time>
      </trkpt>
      <trkpt lat="45.07037" lon="5.42826">
        <ele>1039.8</ele>
        <time>2012-07-31T13:52:56Z</time>
      </trkpt>
      <trkpt lat="45.07037" lon="5.4282">
        <ele>1038.84</ele>
        <time>2012-07-31T13:53:20Z</time>
      </trkpt>
      <trkpt lat="45.07041" lon="5.42826">
        <ele>1039.32</ele>
        <time>2012-07-31T13:53:36Z</time>
      </trkpt>
      <trkpt lat="45.07049" lon="5.42826">
        <ele>1040.76</ele>
        <time>2012-07-31T13:53:51Z</time>
      </trkpt>
      <trkpt lat="45.07048" lon="5.42828">
        <ele>1040.76</ele>
        <time>2012-07-31T13:54:09Z</time>
      </trkpt>
      <trkpt lat="45.07045" lon="5.42833">
        <ele>1041.25</ele>
        <time>2012-07-31T13:54:24Z</time>
      </trkpt>
      <trkpt lat="45.07052" lon="5.42846">
        <ele>1041.73</ele>
        <time>2012-07-31T13:54:35Z</time>
      </trkpt>
      <trkpt lat="45.07056" lon="5.42863">
        <ele>1043.65</ele>
        <time>2012-07-31T13:54:47Z</time>
      </trkpt>
      <trkpt lat="45.07064" lon="5.42865">
        <ele>1044.61</ele>
        <time>2012-07-31T13:54:57Z</time>
      </trkpt>
      <trkpt lat="45.07073" lon="5.42863">
        <ele>1045.57</ele>
        <time>2012-07-31T13:55:12Z</time>
      </trkpt>
      <trkpt lat="45.07074" lon="5.42863">
        <ele>1045.57</ele>
        <time>2012-07-31T13:55:13Z</time>
      </trkpt>
      <trkpt lat="45.07078" lon="5.4286">
        <ele>1046.05</ele>
        <time>2012-07-31T13:55:17Z</time>
      </trkpt>
      <trkpt lat="45.07081" lon="5.42852">
        <ele>1046.53</ele>
        <time>2012-07-31T13:55:22Z</time>
      </trkpt>
      <trkpt lat="45.07084" lon="5.42848">
        <ele>1047.01</ele>
        <time>2012-07-31T13:55:26Z</time>
      </trkpt>
      <trkpt lat="45.07084" lon="5.42847">
        <ele>1047.01</ele>
        <time>2012-07-31T13:55:36Z</time>
      </trkpt>
      <trkpt lat="45.07087" lon="5.42846">
        <ele>1047.49</ele>
        <time>2012-07-31T13:55:47Z</time>
      </trkpt>
      <trkpt lat="45.07093" lon="5.42832">
        <ele>1048.45</ele>
        <time>2012-07-31T13:55:57Z</time>
      </trkpt>
      <trkpt lat="45.07104" lon="5.42821">
        <ele>1051.82</ele>
        <time>2012-07-31T13:56:11Z</time>
      </trkpt>
      <trkpt lat="45.07108" lon="5.4282">
        <ele>1053.26</ele>
        <time>2012-07-31T13:56:25Z</time>
      </trkpt>
      <trkpt lat="45.07108" lon="5.42819">
        <ele>1053.74</ele>
        <time>2012-07-31T13:56:27Z</time>
      </trkpt>
      <trkpt lat="45.07112" lon="5.42808">
        <ele>1055.67</ele>
        <time>2012-07-31T13:56:33Z</time>
      </trkpt>
      <trkpt lat="45.07125" lon="5.42801">
        <ele>1058.55</ele>
        <time>2012-07-31T13:56:45Z</time>
      </trkpt>
      <trkpt lat="45.07137" lon="5.42788">
        <ele>1060.95</ele>
        <time>2012-07-31T13:56:58Z</time>
      </trkpt>
      <trkpt lat="45.07143" lon="5.42789">
        <ele>1062.87</ele>
        <time>2012-07-31T13:57:11Z</time>
      </trkpt>
      <trkpt lat="45.07157" lon="5.42791">
        <ele>1064.8</ele>
        <time>2012-07-31T13:57:27Z</time>
      </trkpt>
      <trkpt lat="45.07168" lon="5.42794">
        <ele>1066.72</ele>
        <time>2012-07-31T13:57:35Z</time>
      </trkpt>
      <trkpt lat="45.0717" lon="5.42804">
        <ele>1067.2</ele>
        <time>2012-07-31T13:57:47Z</time>
      </trkpt>
      <trkpt lat="45.0717" lon="5.42805">
        <ele>1067.2</ele>
        <time>2012-07-31T13:58:14Z</time>
      </trkpt>
      <trkpt lat="45.07172" lon="5.42815">
        <ele>1066.72</ele>
        <time>2012-07-31T13:58:20Z</time>
      </trkpt>
      <trkpt lat="45.07174" lon="5.4282">
        <ele>1067.2</ele>
        <time>2012-07-31T13:58:23Z</time>
      </trkpt>
      <trkpt lat="45.07183" lon="5.42841">
        <ele>1066.24</ele>
        <time>2012-07-31T13:58:38Z</time>
      </trkpt>
      <trkpt lat="45.07185" lon="5.42845">
        <ele>1066.24</ele>
        <time>2012-07-31T13:58:42Z</time>
      </trkpt>
      <trkpt lat="45.0719" lon="5.42858">
        <ele>1066.24</ele>
        <time>2012-07-31T13:58:56Z</time>
      </trkpt>
      <trkpt lat="45.07197" lon="5.42865">
        <ele>1064.8</ele>
        <time>2012-07-31T13:59:03Z</time>
      </trkpt>
      <trkpt lat="45.07206" lon="5.42868">
        <ele>1064.32</ele>
        <time>2012-07-31T13:59:19Z</time>
      </trkpt>
      <trkpt lat="45.0722" lon="5.42887">
        <ele>1065.76</ele>
        <time>2012-07-31T13:59:33Z</time>
      </trkpt>
      <trkpt lat="45.07226" lon="5.42892">
        <ele>1066.24</ele>
        <time>2012-07-31T13:59:42Z</time>
      </trkpt>
      <trkpt lat="45.07229" lon="5.42895">
        <ele>1066.72</ele>
        <time>2012-07-31T13:59:45Z</time>
      </trkpt>
      <trkpt lat="45.07233" lon="5.42893">
        <ele>1066.72</ele>
        <time>2012-07-31T13:59:51Z</time>
      </trkpt>
      <trkpt lat="45.07243" lon="5.42877">
        <ele>1065.76</ele>
        <time>2012-07-31T14:00:05Z</time>
      </trkpt>
      <trkpt lat="45.07247" lon="5.42873">
        <ele>1065.28</ele>
        <time>2012-07-31T14:00:10Z</time>
      </trkpt>
      <trkpt lat="45.07258" lon="5.4287">
        <ele>1066.72</ele>
        <time>2012-07-31T14:00:24Z</time>
      </trkpt>
      <trkpt lat="45.07265" lon="5.42865">
        <ele>1067.68</ele>
        <time>2012-07-31T14:00:36Z</time>
      </trkpt>
      <trkpt lat="45.0727" lon="5.42864">
        <ele>1066.72</ele>
        <time>2012-07-31T14:00:48Z</time>
      </trkpt>
      <trkpt lat="45.07281" lon="5.42868">
        <ele>1064.8</ele>
        <time>2012-07-31T14:01:00Z</time>
      </trkpt>
      <trkpt lat="45.07294" lon="5.42874">
        <ele>1062.87</ele>
        <time>2012-07-31T14:01:16Z</time>
      </trkpt>
      <trkpt lat="45.07305" lon="5.42877">
        <ele>1062.87</ele>
        <time>2012-07-31T14:01:28Z</time>
      </trkpt>
      <trkpt lat="45.07316" lon="5.4289">
        <ele>1062.87</ele>
        <time>2012-07-31T14:01:40Z</time>
      </trkpt>
      <trkpt lat="45.07324" lon="5.42904">
        <ele>1059.51</ele>
        <time>2012-07-31T14:01:57Z</time>
      </trkpt>
      <trkpt lat="45.07329" lon="5.42911">
        <ele>1059.51</ele>
        <time>2012-07-31T14:02:00Z</time>
      </trkpt>
      <trkpt lat="45.07338" lon="5.42923">
        <ele>1059.03</ele>
        <time>2012-07-31T14:02:13Z</time>
      </trkpt>
      <trkpt lat="45.07354" lon="5.42935">
        <ele>1056.15</ele>
        <time>2012-07-31T14:02:31Z</time>
      </trkpt>
      <trkpt lat="45.07368" lon="5.42949">
        <ele>1057.59</ele>
        <time>2012-07-31T14:02:45Z</time>
      </trkpt>
      <trkpt lat="45.07371" lon="5.42953">
        <ele>1057.59</ele>
        <time>2012-07-31T14:02:52Z</time>
      </trkpt>
      <trkpt lat="45.07379" lon="5.42966">
        <ele>1058.07</ele>
        <time>2012-07-31T14:03:07Z</time>
      </trkpt>
      <trkpt lat="45.07387" lon="5.42983">
        <ele>1058.07</ele>
        <time>2012-07-31T14:03:21Z</time>
      </trkpt>
      <trkpt lat="45.07388" lon="5.42985">
        <ele>1058.07</ele>
        <time>2012-07-31T14:03:22Z</time>
      </trkpt>
      <trkpt lat="45.07392" lon="5.42997">
        <ele>1060.47</ele>
        <time>2012-07-31T14:03:31Z</time>
      </trkpt>
      <trkpt lat="45.07396" lon="5.43004">
        <ele>1059.99</ele>
        <time>2012-07-31T14:03:38Z</time>
      </trkpt>
      <trkpt lat="45.07399" lon="5.43007">
        <ele>1059.99</ele>
        <time>2012-07-31T14:03:42Z</time>
      </trkpt>
      <trkpt lat="45.07408" lon="5.43019">
        <ele>1060.95</ele>
        <time>2012-07-31T14:03:55Z</time>
      </trkpt>
      <trkpt lat="45.07417" lon="5.43032">
        <ele>1059.51</ele>
        <time>2012-07-31T14:04:09Z</time>
      </trkpt>
      <trkpt lat="45.07424" lon="5.43047">
        <ele>1059.99</ele>
        <time>2012-07-31T14:04:23Z</time>
      </trkpt>
      <trkpt lat="45.07431" lon="5.43059">
        <ele>1059.03</ele>
        <time>2012-07-31T14:04:33Z</time>
      </trkpt>
      <trkpt lat="45.07436" lon="5.4306">
        <ele>1058.55</ele>
        <time>2012-07-31T14:04:39Z</time>
      </trkpt>
      <trkpt lat="45.07438" lon="5.43061">
        <ele>1058.07</ele>
        <time>2012-07-31T14:04:41Z</time>
      </trkpt>
      <trkpt lat="45.07444" lon="5.43062">
        <ele>1058.55</ele>
        <time>2012-07-31T14:04:47Z</time>
      </trkpt>
      <trkpt lat="45.07448" lon="5.43066">
        <ele>1059.03</ele>
        <time>2012-07-31T14:04:52Z</time>
      </trkpt>
      <trkpt lat="45.07451" lon="5.43067">
        <ele>1059.03</ele>
        <time>2012-07-31T14:04:54Z</time>
      </trkpt>
      <trkpt lat="45.07455" lon="5.4307">
        <ele>1059.99</ele>
        <time>2012-07-31T14:05:01Z</time>
      </trkpt>
      <trkpt lat="45.07468" lon="5.43077">
        <ele>1062.39</ele>
        <time>2012-07-31T14:05:15Z</time>
      </trkpt>
      <trkpt lat="45.07473" lon="5.43079">
        <ele>1062.87</ele>
        <time>2012-07-31T14:05:21Z</time>
      </trkpt>
      <trkpt lat="45.07476" lon="5.43081">
        <ele>1063.84</ele>
        <time>2012-07-31T14:05:26Z</time>
      </trkpt>
      <trkpt lat="45.07478" lon="5.43083">
        <ele>1063.84</ele>
        <time>2012-07-31T14:05:28Z</time>
      </trkpt>
      <trkpt lat="45.07482" lon="5.43086">
        <ele>1064.32</ele>
        <time>2012-07-31T14:05:36Z</time>
      </trkpt>
      <trkpt lat="45.07491" lon="5.43099">
        <ele>1063.36</ele>
        <time>2012-07-31T14:05:48Z</time>
      </trkpt>
      <trkpt lat="45.07494" lon="5.43102">
        <ele>1061.91</ele>
        <time>2012-07-31T14:05:52Z</time>
      </trkpt>
      <trkpt lat="45.07497" lon="5.43106">
        <ele>1061.43</ele>
        <time>2012-07-31T14:05:58Z</time>
      </trkpt>
      <trkpt lat="45.07502" lon="5.43108">
        <ele>1060.47</ele>
        <time>2012-07-31T14:06:03Z</time>
      </trkpt>
      <trkpt lat="45.07505" lon="5.43111">
        <ele>1060.95</ele>
        <time>2012-07-31T14:06:06Z</time>
      </trkpt>
      <trkpt lat="45.0751" lon="5.43114">
        <ele>1060.95</ele>
        <time>2012-07-31T14:06:10Z</time>
      </trkpt>
      <trkpt lat="45.07515" lon="5.43119">
        <ele>1060.95</ele>
        <time>2012-07-31T14:06:15Z</time>
      </trkpt>
      <trkpt lat="45.07518" lon="5.43123">
        <ele>1060.47</ele>
        <time>2012-07-31T14:06:20Z</time>
      </trkpt>
      <trkpt lat="45.07522" lon="5.43126">
        <ele>1060.47</ele>
        <time>2012-07-31T14:06:24Z</time>
      </trkpt>
      <trkpt lat="45.07528" lon="5.4313">
        <ele>1059.51</ele>
        <time>2012-07-31T14:06:30Z</time>
      </trkpt>
      <trkpt lat="45.07547" lon="5.43144">
        <ele>1056.63</ele>
        <time>2012-07-31T14:06:49Z</time>
      </trkpt>
      <trkpt lat="45.07555" lon="5.43158">
        <ele>1058.07</ele>
        <time>2012-07-31T14:07:01Z</time>
      </trkpt>
      <trkpt lat="45.07566" lon="5.43168">
        <ele>1062.87</ele>
        <time>2012-07-31T14:07:16Z</time>
      </trkpt>
      <trkpt lat="45.07567" lon="5.4317">
        <ele>1063.36</ele>
        <time>2012-07-31T14:07:35Z</time>
      </trkpt>
      <trkpt lat="45.0756" lon="5.43163">
        <ele>1064.8</ele>
        <time>2012-07-31T14:07:42Z</time>
      </trkpt>
      <trkpt lat="45.07561" lon="5.43159">
        <ele>1065.28</ele>
        <time>2012-07-31T14:07:44Z</time>
      </trkpt>
      <trkpt lat="45.07565" lon="5.43133">
        <ele>1069.12</ele>
        <time>2012-07-31T14:07:57Z</time>
      </trkpt>
      <trkpt lat="45.07571" lon="5.43131">
        <ele>1072.01</ele>
        <time>2012-07-31T14:08:01Z</time>
      </trkpt>
      <trkpt lat="45.07582" lon="5.43124">
        <ele>1076.81</ele>
        <time>2012-07-31T14:08:14Z</time>
      </trkpt>
      <trkpt lat="45.07591" lon="5.43121">
        <ele>1080.66</ele>
        <time>2012-07-31T14:08:22Z</time>
      </trkpt>
      <trkpt lat="45.07605" lon="5.43115">
        <ele>1085.47</ele>
        <time>2012-07-31T14:08:33Z</time>
      </trkpt>
      <trkpt lat="45.07616" lon="5.43108">
        <ele>1088.83</ele>
        <time>2012-07-31T14:08:42Z</time>
      </trkpt>
      <trkpt lat="45.07626" lon="5.43088">
        <ele>1087.87</ele>
        <time>2012-07-31T14:08:56Z</time>
      </trkpt>
      <trkpt lat="45.07631" lon="5.4308">
        <ele>1087.39</ele>
        <time>2012-07-31T14:09:11Z</time>
      </trkpt>
      <trkpt lat="45.07631" lon="5.43076">
        <ele>1085.95</ele>
        <time>2012-07-31T14:09:26Z</time>
      </trkpt>
      <trkpt lat="45.07618" lon="5.43085">
        <ele>1084.5</ele>
        <time>2012-07-31T14:09:46Z</time>
      </trkpt>
      <trkpt lat="45.07643" lon="5.43084">
        <ele>1082.58</ele>
        <time>2012-07-31T14:10:07Z</time>
      </trkpt>
      <trkpt lat="45.07645" lon="5.43089">
        <ele>1085.95</ele>
        <time>2012-07-31T14:10:18Z</time>
      </trkpt>
      <trkpt lat="45.07651" lon="5.43099">
        <ele>1088.35</ele>
        <time>2012-07-31T14:10:28Z</time>
      </trkpt>
      <trkpt lat="45.07653" lon="5.43102">
        <ele>1088.83</ele>
        <time>2012-07-31T14:10:32Z</time>
      </trkpt>
      <trkpt lat="45.07655" lon="5.43107">
        <ele>1089.79</ele>
        <time>2012-07-31T14:10:37Z</time>
      </trkpt>
      <trkpt lat="45.07657" lon="5.43114">
        <ele>1090.75</ele>
        <time>2012-07-31T14:10:43Z</time>
      </trkpt>
      <trkpt lat="45.07664" lon="5.43125">
        <ele>1091.71</ele>
        <time>2012-07-31T14:10:52Z</time>
      </trkpt>
      <trkpt lat="45.07664" lon="5.4313">
        <ele>1092.2</ele>
        <time>2012-07-31T14:10:57Z</time>
      </trkpt>
      <trkpt lat="45.07666" lon="5.43135">
        <ele>1092.68</ele>
        <time>2012-07-31T14:11:01Z</time>
      </trkpt>
      <trkpt lat="45.07671" lon="5.43147">
        <ele>1093.16</ele>
        <time>2012-07-31T14:11:12Z</time>
      </trkpt>
      <trkpt lat="45.07677" lon="5.43153">
        <ele>1093.16</ele>
        <time>2012-07-31T14:11:21Z</time>
      </trkpt>
      <trkpt lat="45.0768" lon="5.43155">
        <ele>1093.64</ele>
        <time>2012-07-31T14:11:24Z</time>
      </trkpt>
      <trkpt lat="45.07687" lon="5.43159">
        <ele>1093.16</ele>
        <time>2012-07-31T14:11:33Z</time>
      </trkpt>
      <trkpt lat="45.07698" lon="5.43165">
        <ele>1094.12</ele>
        <time>2012-07-31T14:11:45Z</time>
      </trkpt>
      <trkpt lat="45.077" lon="5.43166">
        <ele>1094.6</ele>
        <time>2012-07-31T14:11:47Z</time>
      </trkpt>
      <trkpt lat="45.07712" lon="5.43167">
        <ele>1096.52</ele>
        <time>2012-07-31T14:11:59Z</time>
      </trkpt>
      <trkpt lat="45.07718" lon="5.43166">
        <ele>1097.96</ele>
        <time>2012-07-31T14:12:12Z</time>
      </trkpt>
      <trkpt lat="45.07729" lon="5.43168">
        <ele>1098.44</ele>
        <time>2012-07-31T14:12:25Z</time>
      </trkpt>
      <trkpt lat="45.07741" lon="5.4317">
        <ele>1099.89</ele>
        <time>2012-07-31T14:12:39Z</time>
      </trkpt>
      <trkpt lat="45.07741" lon="5.43171">
        <ele>1099.89</ele>
        <time>2012-07-31T14:12:52Z</time>
      </trkpt>
      <trkpt lat="45.07747" lon="5.43176">
        <ele>1101.33</ele>
        <time>2012-07-31T14:13:04Z</time>
      </trkpt>
      <trkpt lat="45.07749" lon="5.43178">
        <ele>1101.81</ele>
        <time>2012-07-31T14:13:16Z</time>
      </trkpt>
      <trkpt lat="45.07751" lon="5.43179">
        <ele>1101.81</ele>
        <time>2012-07-31T14:13:18Z</time>
      </trkpt>
      <trkpt lat="45.07754" lon="5.43181">
        <ele>1101.81</ele>
        <time>2012-07-31T14:13:29Z</time>
      </trkpt>
      <trkpt lat="45.07755" lon="5.43184">
        <ele>1102.29</ele>
        <time>2012-07-31T14:13:32Z</time>
      </trkpt>
      <trkpt lat="45.07759" lon="5.43187">
        <ele>1103.25</ele>
        <time>2012-07-31T14:13:37Z</time>
      </trkpt>
      <trkpt lat="45.07775" lon="5.43197">
        <ele>1109.02</ele>
        <time>2012-07-31T14:13:49Z</time>
      </trkpt>
      <trkpt lat="45.07789" lon="5.43176">
        <ele>1115.75</ele>
        <time>2012-07-31T14:14:05Z</time>
      </trkpt>
      <trkpt lat="45.07793" lon="5.43166">
        <ele>1116.23</ele>
        <time>2012-07-31T14:14:19Z</time>
      </trkpt>
      <trkpt lat="45.0779" lon="5.43152">
        <ele>1118.15</ele>
        <time>2012-07-31T14:14:32Z</time>
      </trkpt>
      <trkpt lat="45.07792" lon="5.43137">
        <ele>1118.63</ele>
        <time>2012-07-31T14:14:49Z</time>
      </trkpt>
      <trkpt lat="45.07793" lon="5.43138">
        <ele>1118.63</ele>
        <time>2012-07-31T14:15:07Z</time>
      </trkpt>
      <trkpt lat="45.07804" lon="5.43137">
        <ele>1119.59</ele>
        <time>2012-07-31T14:15:25Z</time>
      </trkpt>
      <trkpt lat="45.07815" lon="5.43131">
        <ele>1122.48</ele>
        <time>2012-07-31T14:15:42Z</time>
      </trkpt>
      <trkpt lat="45.07818" lon="5.43125">
        <ele>1124.4</ele>
        <time>2012-07-31T14:15:49Z</time>
      </trkpt>
      <trkpt lat="45.07819" lon="5.43123">
        <ele>1124.4</ele>
        <time>2012-07-31T14:15:51Z</time>
      </trkpt>
      <trkpt lat="45.07825" lon="5.43115">
        <ele>1127.28</ele>
        <time>2012-07-31T14:15:57Z</time>
      </trkpt>
      <trkpt lat="45.07831" lon="5.43094">
        <ele>1132.57</ele>
        <time>2012-07-31T14:16:09Z</time>
      </trkpt>
      <trkpt lat="45.07829" lon="5.43073">
        <ele>1135.45</ele>
        <time>2012-07-31T14:16:19Z</time>
      </trkpt>
      <trkpt lat="45.07827" lon="5.43051">
        <ele>1134.49</ele>
        <time>2012-07-31T14:16:33Z</time>
      </trkpt>
      <trkpt lat="45.07826" lon="5.43036">
        <ele>1132.57</ele>
        <time>2012-07-31T14:16:46Z</time>
      </trkpt>
      <trkpt lat="45.07826" lon="5.43036">
        <ele>1132.57</ele>
        <time>2012-07-31T14:17:13Z</time>
      </trkpt>
      <trkpt lat="45.07824" lon="5.43034">
        <ele>1133.05</ele>
        <time>2012-07-31T14:17:37Z</time>
      </trkpt>
      <trkpt lat="45.07824" lon="5.43035">
        <ele>1132.57</ele>
        <time>2012-07-31T14:17:54Z</time>
      </trkpt>
      <trkpt lat="45.07822" lon="5.43039">
        <ele>1132.57</ele>
        <time>2012-07-31T14:18:11Z</time>
      </trkpt>
      <trkpt lat="45.07832" lon="5.43047">
        <ele>1132.57</ele>
        <time>2012-07-31T14:18:16Z</time>
      </trkpt>
      <trkpt lat="45.07831" lon="5.43037">
        <ele>1131.61</ele>
        <time>2012-07-31T14:18:33Z</time>
      </trkpt>
      <trkpt lat="45.07828" lon="5.43011">
        <ele>1135.45</ele>
        <time>2012-07-31T14:18:46Z</time>
      </trkpt>
      <trkpt lat="45.07828" lon="5.42998">
        <ele>1137.38</ele>
        <time>2012-07-31T14:18:58Z</time>
      </trkpt>
      <trkpt lat="45.07827" lon="5.42984">
        <ele>1140.26</ele>
        <time>2012-07-31T14:19:05Z</time>
      </trkpt>
      <trkpt lat="45.07827" lon="5.42979">
        <ele>1141.22</ele>
        <time>2012-07-31T14:19:08Z</time>
      </trkpt>
      <trkpt lat="45.07823" lon="5.42966">
        <ele>1144.11</ele>
        <time>2012-07-31T14:19:19Z</time>
      </trkpt>
      <trkpt lat="45.0782" lon="5.42945">
        <ele>1146.99</ele>
        <time>2012-07-31T14:19:29Z</time>
      </trkpt>
      <trkpt lat="45.0782" lon="5.42938">
        <ele>1147.95</ele>
        <time>2012-07-31T14:19:32Z</time>
      </trkpt>
      <trkpt lat="45.07818" lon="5.42925">
        <ele>1149.39</ele>
        <time>2012-07-31T14:19:39Z</time>
      </trkpt>
      <trkpt lat="45.07819" lon="5.42921">
        <ele>1149.87</ele>
        <time>2012-07-31T14:19:41Z</time>
      </trkpt>
      <trkpt lat="45.0782" lon="5.42917">
        <ele>1150.35</ele>
        <time>2012-07-31T14:19:44Z</time>
      </trkpt>
      <trkpt lat="45.07823" lon="5.42912">
        <ele>1152.76</ele>
        <time>2012-07-31T14:19:48Z</time>
      </trkpt>
      <trkpt lat="45.0783" lon="5.42913">
        <ele>1153.24</ele>
        <time>2012-07-31T14:19:55Z</time>
      </trkpt>
      <trkpt lat="45.07836" lon="5.42915">
        <ele>1153.72</ele>
        <time>2012-07-31T14:20:00Z</time>
      </trkpt>
      <trkpt lat="45.07856" lon="5.42918">
        <ele>1155.64</ele>
        <time>2012-07-31T14:20:13Z</time>
      </trkpt>
      <trkpt lat="45.07857" lon="5.42918">
        <ele>1155.16</ele>
        <time>2012-07-31T14:20:14Z</time>
      </trkpt>
      <trkpt lat="45.07875" lon="5.42921">
        <ele>1156.6</ele>
        <time>2012-07-31T14:20:25Z</time>
      </trkpt>
      <trkpt lat="45.07885" lon="5.42925">
        <ele>1159.49</ele>
        <time>2012-07-31T14:20:37Z</time>
      </trkpt>
      <trkpt lat="45.07885" lon="5.42925">
        <ele>1159.97</ele>
        <time>2012-07-31T14:20:57Z</time>
      </trkpt>
      <trkpt lat="45.07885" lon="5.42924">
        <ele>1159.97</ele>
        <time>2012-07-31T14:21:24Z</time>
      </trkpt>
      <trkpt lat="45.07885" lon="5.42926">
        <ele>1159.97</ele>
        <time>2012-07-31T14:21:49Z</time>
      </trkpt>
      <trkpt lat="45.07884" lon="5.42929">
        <ele>1160.45</ele>
        <time>2012-07-31T14:22:17Z</time>
      </trkpt>
      <trkpt lat="45.07884" lon="5.42929">
        <ele>1159.97</ele>
        <time>2012-07-31T14:22:47Z</time>
      </trkpt>
      <trkpt lat="45.07897" lon="5.42928">
        <ele>1162.85</ele>
        <time>2012-07-31T14:23:03Z</time>
      </trkpt>
      <trkpt lat="45.07904" lon="5.42931">
        <ele>1165.26</ele>
        <time>2012-07-31T14:23:08Z</time>
      </trkpt>
      <trkpt lat="45.07917" lon="5.42938">
        <ele>1169.1</ele>
        <time>2012-07-31T14:23:18Z</time>
      </trkpt>
      <trkpt lat="45.07924" lon="5.42943">
        <ele>1170.06</ele>
        <time>2012-07-31T14:23:23Z</time>
      </trkpt>
      <trkpt lat="45.07941" lon="5.42944">
        <ele>1171.5</ele>
        <time>2012-07-31T14:23:37Z</time>
      </trkpt>
      <trkpt lat="45.07956" lon="5.42944">
        <ele>1175.83</ele>
        <time>2012-07-31T14:23:49Z</time>
      </trkpt>
      <trkpt lat="45.07974" lon="5.42946">
        <ele>1178.23</ele>
        <time>2012-07-31T14:24:02Z</time>
      </trkpt>
      <trkpt lat="45.07976" lon="5.42947">
        <ele>1179.67</ele>
        <time>2012-07-31T14:24:06Z</time>
      </trkpt>
      <trkpt lat="45.07983" lon="5.4295">
        <ele>1182.08</ele>
        <time>2012-07-31T14:24:11Z</time>
      </trkpt>
      <trkpt lat="45.07988" lon="5.42955">
        <ele>1184</ele>
        <time>2012-07-31T14:24:27Z</time>
      </trkpt>
      <trkpt lat="45.07985" lon="5.42957">
        <ele>1185.92</ele>
        <time>2012-07-31T14:24:49Z</time>
      </trkpt>
      <trkpt lat="45.07989" lon="5.42961">
        <ele>1186.88</ele>
        <time>2012-07-31T14:25:03Z</time>
      </trkpt>
      <trkpt lat="45.07999" lon="5.42968">
        <ele>1186.88</ele>
        <time>2012-07-31T14:25:15Z</time>
      </trkpt>
      <trkpt lat="45.08009" lon="5.42983">
        <ele>1188.81</ele>
        <time>2012-07-31T14:25:27Z</time>
      </trkpt>
      <trkpt lat="45.0801" lon="5.42987">
        <ele>1189.29</ele>
        <time>2012-07-31T14:25:30Z</time>
      </trkpt>
      <trkpt lat="45.08017" lon="5.42996">
        <ele>1190.25</ele>
        <time>2012-07-31T14:25:38Z</time>
      </trkpt>
      <trkpt lat="45.08028" lon="5.43001">
        <ele>1189.29</ele>
        <time>2012-07-31T14:25:50Z</time>
      </trkpt>
      <trkpt lat="45.08029" lon="5.43004">
        <ele>1188.81</ele>
        <time>2012-07-31T14:25:52Z</time>
      </trkpt>
      <trkpt lat="45.08044" lon="5.43013">
        <ele>1188.81</ele>
        <time>2012-07-31T14:26:04Z</time>
      </trkpt>
      <trkpt lat="45.0805" lon="5.43015">
        <ele>1188.33</ele>
        <time>2012-07-31T14:26:09Z</time>
      </trkpt>
      <trkpt lat="45.08061" lon="5.43026">
        <ele>1184.96</ele>
        <time>2012-07-31T14:26:22Z</time>
      </trkpt>
      <trkpt lat="45.08067" lon="5.43033">
        <ele>1184</ele>
        <time>2012-07-31T14:26:28Z</time>
      </trkpt>
      <trkpt lat="45.08074" lon="5.4305">
        <ele>1183.04</ele>
        <time>2012-07-31T14:26:41Z</time>
      </trkpt>
      <trkpt lat="45.08078" lon="5.4306">
        <ele>1183.52</ele>
        <time>2012-07-31T14:26:51Z</time>
      </trkpt>
      <trkpt lat="45.08088" lon="5.43071">
        <ele>1182.56</ele>
        <time>2012-07-31T14:27:07Z</time>
      </trkpt>
      <trkpt lat="45.08101" lon="5.43086">
        <ele>1182.08</ele>
        <time>2012-07-31T14:27:23Z</time>
      </trkpt>
      <trkpt lat="45.0811" lon="5.43099">
        <ele>1182.08</ele>
        <time>2012-07-31T14:27:37Z</time>
      </trkpt>
      <trkpt lat="45.08122" lon="5.43112">
        <ele>1182.08</ele>
        <time>2012-07-31T14:27:51Z</time>
      </trkpt>
      <trkpt lat="45.08133" lon="5.43136">
        <ele>1181.6</ele>
        <time>2012-07-31T14:28:09Z</time>
      </trkpt>
      <trkpt lat="45.08151" lon="5.43158">
        <ele>1182.56</ele>
        <time>2012-07-31T14:28:24Z</time>
      </trkpt>
      <trkpt lat="45.08154" lon="5.43163">
        <ele>1183.04</ele>
        <time>2012-07-31T14:28:33Z</time>
      </trkpt>
      <trkpt lat="45.0816" lon="5.4317">
        <ele>1184.96</ele>
        <time>2012-07-31T14:28:42Z</time>
      </trkpt>
      <trkpt lat="45.08166" lon="5.43178">
        <ele>1186.4</ele>
        <time>2012-07-31T14:28:55Z</time>
      </trkpt>
      <trkpt lat="45.08166" lon="5.43178">
        <ele>1186.4</ele>
        <time>2012-07-31T14:28:57Z</time>
      </trkpt>
      <trkpt lat="45.08181" lon="5.43203">
        <ele>1181.6</ele>
        <time>2012-07-31T14:29:08Z</time>
      </trkpt>
      <trkpt lat="45.08194" lon="5.4322">
        <ele>1181.6</ele>
        <time>2012-07-31T14:29:21Z</time>
      </trkpt>
      <trkpt lat="45.08197" lon="5.43224">
        <ele>1182.08</ele>
        <time>2012-07-31T14:29:38Z</time>
      </trkpt>
      <trkpt lat="45.08222" lon="5.43228">
        <ele>1181.12</ele>
        <time>2012-07-31T14:29:52Z</time>
      </trkpt>
      <trkpt lat="45.08228" lon="5.43234">
        <ele>1182.08</ele>
        <time>2012-07-31T14:30:03Z</time>
      </trkpt>
      <trkpt lat="45.08245" lon="5.43241">
        <ele>1179.19</ele>
        <time>2012-07-31T14:30:18Z</time>
      </trkpt>
      <trkpt lat="45.08253" lon="5.43247">
        <ele>1178.23</ele>
        <time>2012-07-31T14:30:31Z</time>
      </trkpt>
      <trkpt lat="45.08268" lon="5.43255">
        <ele>1173.91</ele>
        <time>2012-07-31T14:30:43Z</time>
      </trkpt>
      <trkpt lat="45.08277" lon="5.43259">
        <ele>1173.43</ele>
        <time>2012-07-31T14:30:54Z</time>
      </trkpt>
      <trkpt lat="45.08285" lon="5.43262">
        <ele>1173.91</ele>
        <time>2012-07-31T14:31:05Z</time>
      </trkpt>
      <trkpt lat="45.08293" lon="5.43275">
        <ele>1175.83</ele>
        <time>2012-07-31T14:31:23Z</time>
      </trkpt>
      <trkpt lat="45.083" lon="5.43294">
        <ele>1175.35</ele>
        <time>2012-07-31T14:31:38Z</time>
      </trkpt>
      <trkpt lat="45.083" lon="5.43302">
        <ele>1176.31</ele>
        <time>2012-07-31T14:31:43Z</time>
      </trkpt>
      <trkpt lat="45.08302" lon="5.4331">
        <ele>1177.75</ele>
        <time>2012-07-31T14:31:58Z</time>
      </trkpt>
      <trkpt lat="45.08302" lon="5.43321">
        <ele>1176.79</ele>
        <time>2012-07-31T14:32:12Z</time>
      </trkpt>
      <trkpt lat="45.08303" lon="5.43347">
        <ele>1175.35</ele>
        <time>2012-07-31T14:32:25Z</time>
      </trkpt>
      <trkpt lat="45.08301" lon="5.43368">
        <ele>1175.35</ele>
        <time>2012-07-31T14:32:39Z</time>
      </trkpt>
      <trkpt lat="45.08305" lon="5.43391">
        <ele>1175.83</ele>
        <time>2012-07-31T14:32:52Z</time>
      </trkpt>
      <trkpt lat="45.08318" lon="5.43414">
        <ele>1179.19</ele>
        <time>2012-07-31T14:33:08Z</time>
      </trkpt>
      <trkpt lat="45.0833" lon="5.43432">
        <ele>1180.64</ele>
        <time>2012-07-31T14:33:20Z</time>
      </trkpt>
      <trkpt lat="45.08331" lon="5.43432">
        <ele>1180.64</ele>
        <time>2012-07-31T14:33:21Z</time>
      </trkpt>
      <trkpt lat="45.08343" lon="5.43445">
        <ele>1178.23</ele>
        <time>2012-07-31T14:33:34Z</time>
      </trkpt>
      <trkpt lat="45.08342" lon="5.43446">
        <ele>1178.23</ele>
        <time>2012-07-31T14:33:48Z</time>
      </trkpt>
      <trkpt lat="45.08342" lon="5.43446">
        <ele>1178.23</ele>
        <time>2012-07-31T14:33:50Z</time>
      </trkpt>
      <trkpt lat="45.08354" lon="5.43447">
        <ele>1178.71</ele>
        <time>2012-07-31T14:34:02Z</time>
      </trkpt>
      <trkpt lat="45.08357" lon="5.43447">
        <ele>1178.71</ele>
        <time>2012-07-31T14:34:05Z</time>
      </trkpt>
      <trkpt lat="45.08361" lon="5.43451">
        <ele>1178.71</ele>
        <time>2012-07-31T14:34:10Z</time>
      </trkpt>
      <trkpt lat="45.08366" lon="5.4345">
        <ele>1179.19</ele>
        <time>2012-07-31T14:34:14Z</time>
      </trkpt>
      <trkpt lat="45.0838" lon="5.43448">
        <ele>1175.35</ele>
        <time>2012-07-31T14:34:29Z</time>
      </trkpt>
    </trkseg>
  </trk>
</gpx>